Time,TemperatureF,DewpointF,PressureIn,WindDirection,WindDirectionDegrees,WindSpeedMPH,WindSpeedGustMPH,Humidity,HourlyPrecipIn,Conditions,Clouds,dailyrainin,SoftwareType,DateUTC
2013-01-27 00:08:00,54.7,46.2,30.18,ESE,112,4.0,5.0,73,0.00,,,0.00,WUHU21623XXSP,2013-01-27 06:08:00,
2013-01-27 00:13:00,54.7,46.2,30.18,East,101,3.0,7.0,73,0.00,,,0.00,WUHU21623XXSP,2013-01-27 06:13:00,
2013-01-27 00:18:00,54.7,46.2,30.18,East,99,4.0,7.0,73,0.00,,,0.00,WUHU21623XXSP,2013-01-27 06:18:00,
2013-01-27 00:23:00,54.7,46.2,30.18,ESE,112,6.0,8.0,73,0.00,,,0.00,WUHU21623XXSP,2013-01-27 06:23:00,
2013-01-27 00:28:00,54.9,46.3,30.18,ESE,112,5.0,8.0,73,0.00,,,0.00,WUHU21623XXSP,2013-01-27 06:28:00,
2013-01-27 00:33:00,54.9,46.3,30.17,SE,135,6.0,8.0,73,0.00,,,0.00,WUHU21623XXSP,2013-01-27 06:33:00,
2013-01-27 00:34:00,54.9,46.3,30.18,ESE,112,9.0,9.0,73,0.00,,,0.00,WUHU21623XXSP,2013-01-27 06:34:00,
2013-01-27 00:38:00,54.9,46.3,30.17,ENE,67,6.0,10.0,73,0.00,,,0.00,WUHU21623XXSP,2013-01-27 06:38:00,
2013-01-27 00:39:00,54.9,46.3,30.17,SE,135,9.0,10.0,73,0.00,,,0.00,WUHU21623XXSP,2013-01-27 06:39:00,
2013-01-27 00:43:00,54.9,46.3,30.17,ESE,112,7.0,10.0,73,0.00,,,0.00,WUHU21623XXSP,2013-01-27 06:43:00,
2013-01-27 00:44:00,54.7,46.2,30.17,ESE,115,5.0,10.0,73,0.00,,,0.00,WUHU21623XXSP,2013-01-27 06:44:00,
2013-01-27 00:48:00,54.7,46.2,30.17,ESE,112,8.0,9.0,73,0.00,,,0.00,WUHU21623XXSP,2013-01-27 06:48:00,
2013-01-27 00:49:00,54.7,46.2,30.17,SE,135,6.0,9.0,73,0.00,,,0.00,WUHU21623XXSP,2013-01-27 06:49:00,
2013-01-27 00:54:00,54.7,46.2,30.17,ESE,122,6.0,10.0,73,0.00,,,0.00,WUHU21623XXSP,2013-01-27 06:54:00,
2013-01-27 00:59:00,54.7,46.2,30.18,ESE,121,9.0,11.0,73,0.00,,,0.00,WUHU21623XXSP,2013-01-27 06:59:00,
2013-01-27 01:13:00,54.7,46.2,30.18,ESE,112,10.0,10.0,73,0.00,,,0.00,WUHU21623XXSP,2013-01-27 07:13:00,
2013-01-27 01:14:00,54.5,46.0,30.18,SE,128,4.0,10.0,73,0.00,,,0.00,WUHU21623XXSP,2013-01-27 07:14:00,
2013-01-27 01:18:00,54.7,46.2,30.18,ESE,117,4.0,10.0,73,0.00,,,0.00,WUHU21623XXSP,2013-01-27 07:18:00,
2013-01-27 01:19:00,54.7,46.2,30.18,SE,135,3.0,10.0,73,0.00,,,0.00,WUHU21623XXSP,2013-01-27 07:19:00,
2013-01-27 01:23:00,54.7,46.5,30.18,SE,125,7.0,10.0,74,0.00,,,0.00,WUHU21623XXSP,2013-01-27 07:23:00,
2013-01-27 01:24:00,54.7,46.5,30.18,ESE,112,6.0,10.0,74,0.00,,,0.00,WUHU21623XXSP,2013-01-27 07:24:00,
2013-01-27 01:28:00,54.7,46.5,30.18,SE,125,4.0,10.0,74,0.00,,,0.00,WUHU21623XXSP,2013-01-27 07:28:00,
2013-01-27 01:29:00,54.7,46.5,30.18,ESE,118,4.0,10.0,74,0.00,,,0.00,WUHU21623XXSP,2013-01-27 07:29:00,
2013-01-27 01:33:00,54.7,46.5,30.17,ESE,111,2.0,8.0,74,0.00,,,0.00,WUHU21623XXSP,2013-01-27 07:33:00,
2013-01-27 01:34:00,54.7,46.5,30.17,SE,135,4.0,8.0,74,0.00,,,0.00,WUHU21623XXSP,2013-01-27 07:34:00,
2013-01-27 01:38:00,54.7,46.5,30.17,SE,135,7.0,9.0,74,0.00,,,0.00,WUHU21623XXSP,2013-01-27 07:38:00,
2013-01-27 01:39:00,54.7,46.5,30.17,ESE,112,7.0,9.0,74,0.00,,,0.00,WUHU21623XXSP,2013-01-27 07:39:00,
2013-01-27 01:43:00,54.9,46.7,30.17,ESE,106,8.0,10.0,74,0.00,,,0.00,WUHU21623XXSP,2013-01-27 07:43:00,
2013-01-27 01:44:00,54.7,46.5,30.17,ESE,102,7.0,10.0,74,0.00,,,0.00,WUHU21623XXSP,2013-01-27 07:44:00,
2013-01-27 01:48:00,54.7,46.5,30.17,ESE,108,6.0,10.0,74,0.00,,,0.00,WUHU21623XXSP,2013-01-27 07:48:00,
2013-01-27 01:49:00,54.7,46.5,30.17,East,90,5.0,10.0,74,0.00,,,0.00,WUHU21623XXSP,2013-01-27 07:49:00,
2013-01-27 01:50:00,54.7,46.5,30.17,SE,135,5.0,10.0,74,0.00,,,0.00,WUHU21623XXSP,2013-01-27 07:50:00,
2013-01-27 01:54:00,54.7,46.5,30.17,ESE,112,6.0,9.0,74,0.00,,,0.00,WUHU21623XXSP,2013-01-27 07:54:00,
2013-01-27 01:55:00,54.7,46.5,30.17,ESE,106,4.0,9.0,74,0.00,,,0.00,WUHU21623XXSP,2013-01-27 07:55:00,
2013-01-27 01:59:00,54.9,46.7,30.17,ESE,112,5.0,7.0,74,0.00,,,0.00,WUHU21623XXSP,2013-01-27 07:59:00,
2013-01-27 02:00:00,54.7,46.5,30.17,ESE,105,4.0,7.0,74,0.00,,,0.00,WUHU21623XXSP,2013-01-27 08:00:00,
2013-01-27 02:10:00,54.7,46.7,30.17,ESE,112,1.0,1.0,74,0.00,,,0.00,WUHU21623XXSP,2013-01-27 08:10:00,
2013-01-27 02:15:00,54.9,46.7,30.17,SE,135,6.0,7.0,74,0.00,,,0.00,WUHU21623XXSP,2013-01-27 08:15:00,
2013-01-27 02:20:00,55.0,46.9,30.17,ESE,107,6.0,9.0,74,0.00,,,0.00,WUHU21623XXSP,2013-01-27 08:20:00,
2013-01-27 02:25:00,54.9,46.7,30.16,ESE,112,3.0,9.0,74,0.00,,,0.00,WUHU21623XXSP,2013-01-27 08:25:00,
2013-01-27 02:26:00,54.9,46.7,30.16,ESE,109,3.0,9.0,74,0.00,,,0.00,WUHU21623XXSP,2013-01-27 08:26:00,
2013-01-27 02:30:00,54.9,46.7,30.17,East,99,3.0,6.0,74,0.00,,,0.00,WUHU21623XXSP,2013-01-27 08:30:00,
2013-01-27 02:31:00,54.9,46.7,30.17,East,100,3.0,6.0,74,0.00,,,0.00,WUHU21623XXSP,2013-01-27 08:31:00,
2013-01-27 02:35:00,54.7,46.5,30.17,ESE,106,2.0,6.0,74,0.00,,,0.00,WUHU21623XXSP,2013-01-27 08:35:00,
2013-01-27 02:36:00,54.7,46.5,30.17,SE,129,3.0,6.0,74,0.00,,,0.00,WUHU21623XXSP,2013-01-27 08:36:00,
2013-01-27 02:40:00,54.7,46.5,30.17,East,84,3.0,5.0,74,0.00,,,0.00,WUHU21623XXSP,2013-01-27 08:40:00,
2013-01-27 02:41:00,54.7,46.5,30.17,ESE,112,4.0,5.0,74,0.00,,,0.00,WUHU21623XXSP,2013-01-27 08:41:00,
2013-01-27 02:45:00,54.7,46.5,30.17,East,90,5.0,5.0,74,0.00,,,0.00,WUHU21623XXSP,2013-01-27 08:45:00,
2013-01-27 02:46:00,54.7,46.5,30.17,ESE,111,3.0,5.0,74,0.00,,,0.00,WUHU21623XXSP,2013-01-27 08:46:00,
2013-01-27 02:50:00,54.9,46.7,30.16,ESE,118,3.0,5.0,74,0.00,,,0.00,WUHU21623XXSP,2013-01-27 08:50:00,
2013-01-27 02:51:00,54.9,46.7,30.17,ESE,112,4.0,5.0,74,0.00,,,0.00,WUHU21623XXSP,2013-01-27 08:51:00,
2013-01-27 02:55:00,54.9,46.7,30.17,East,83,3.0,5.0,74,0.00,,,0.00,WUHU21623XXSP,2013-01-27 08:55:00,
2013-01-27 02:56:00,54.7,46.5,30.17,East,82,3.0,5.0,74,0.00,,,0.00,WUHU21623XXSP,2013-01-27 08:56:00,
2013-01-27 02:57:00,54.9,46.7,30.17,East,90,3.0,5.0,74,0.00,,,0.00,WUHU21623XXSP,2013-01-27 08:57:00,
2013-01-27 03:06:00,55.0,46.7,30.17,ENE,67,0.0,4.0,74,0.00,,,0.00,WUHU21623XXSP,2013-01-27 09:06:00,
2013-01-27 03:07:00,55.0,46.9,30.17,ENE,67,2.0,4.0,74,0.00,,,0.00,WUHU21623XXSP,2013-01-27 09:07:00,
2013-01-27 03:11:00,55.0,46.9,30.16,East,83,4.0,5.0,74,0.00,,,0.00,WUHU21623XXSP,2013-01-27 09:11:00,
2013-01-27 03:12:00,55.0,46.9,30.16,East,83,4.0,5.0,74,0.00,,,0.00,WUHU21623XXSP,2013-01-27 09:12:00,
2013-01-27 03:16:00,55.0,46.9,30.16,East,98,3.0,5.0,74,0.00,,,0.00,WUHU21623XXSP,2013-01-27 09:16:00,
2013-01-27 03:17:00,55.0,46.9,30.16,East,90,4.0,5.0,74,0.00,,,0.00,WUHU21623XXSP,2013-01-27 09:17:00,
2013-01-27 03:22:00,55.0,46.9,30.16,ESE,113,3.0,5.0,74,0.00,,,0.00,WUHU21623XXSP,2013-01-27 09:22:00,
2013-01-27 03:27:00,55.2,47.0,30.16,ESE,112,2.0,5.0,74,0.00,,,0.00,WUHU21623XXSP,2013-01-27 09:27:00,
2013-01-27 03:28:00,55.2,47.0,30.16,ESE,108,2.0,5.0,74,0.00,,,0.00,WUHU21623XXSP,2013-01-27 09:28:00,
2013-01-27 03:32:00,55.2,47.0,30.16,ENE,67,3.0,4.0,74,0.00,,,0.00,WUHU21623XXSP,2013-01-27 09:32:00,
2013-01-27 03:33:00,55.2,47.0,30.16,ESE,112,4.0,5.0,74,0.00,,,0.00,WUHU21623XXSP,2013-01-27 09:33:00,
2013-01-27 03:37:00,55.2,47.0,30.16,ESE,112,2.0,5.0,74,0.00,,,0.00,WUHU21623XXSP,2013-01-27 09:37:00,
2013-01-27 03:38:00,55.2,47.0,30.16,ESE,112,2.0,5.0,74,0.00,,,0.00,WUHU21623XXSP,2013-01-27 09:38:00,
2013-01-27 03:42:00,55.2,47.0,30.15,East,81,4.0,5.0,74,0.00,,,0.00,WUHU21623XXSP,2013-01-27 09:42:00,
2013-01-27 03:43:00,55.2,47.0,30.15,East,81,4.0,5.0,74,0.00,,,0.00,WUHU21623XXSP,2013-01-27 09:43:00,
2013-01-27 03:47:00,55.2,47.0,30.15,ESE,112,2.0,5.0,74,0.00,,,0.00,WUHU21623XXSP,2013-01-27 09:47:00,
2013-01-27 03:48:00,55.2,47.0,30.15,ESE,109,2.0,5.0,74,0.00,,,0.00,WUHU21623XXSP,2013-01-27 09:48:00,
2013-01-27 03:53:00,55.2,47.0,30.15,East,90,0.0,5.0,74,0.00,,,0.00,WUHU21623XXSP,2013-01-27 09:53:00,
2013-01-27 03:54:00,55.4,47.2,30.15,ESE,107,3.0,5.0,74,0.00,,,0.00,WUHU21623XXSP,2013-01-27 09:54:00,
2013-01-27 03:58:00,55.4,47.2,30.15,ESE,112,3.0,6.0,74,0.00,,,0.00,WUHU21623XXSP,2013-01-27 09:58:00,
2013-01-27 03:59:00,55.4,47.2,30.15,East,90,2.0,6.0,74,0.00,,,0.00,WUHU21623XXSP,2013-01-27 09:59:00,
2013-01-27 04:10:00,55.2,47.0,30.16,East,90,3.0,3.0,74,0.00,,,0.00,WUHU21623XXSP,2013-01-27 10:10:00,
2013-01-27 04:15:00,55.4,47.2,30.15,ENE,67,1.0,3.0,74,0.00,,,0.00,WUHU21623XXSP,2013-01-27 10:15:00,
2013-01-27 04:20:00,55.4,47.2,30.15,ENE,77,2.0,2.0,74,0.00,,,0.00,WUHU21623XXSP,2013-01-27 10:20:00,
2013-01-27 04:21:00,55.4,47.2,30.15,ENE,76,2.0,2.0,74,0.00,,,0.00,WUHU21623XXSP,2013-01-27 10:21:00,
2013-01-27 04:25:00,55.4,47.2,30.15,ENE,72,2.0,3.0,74,0.00,,,0.00,WUHU21623XXSP,2013-01-27 10:25:00,
2013-01-27 04:26:00,55.4,47.2,30.15,East,90,1.0,3.0,74,0.00,,,0.00,WUHU21623XXSP,2013-01-27 10:26:00,
2013-01-27 04:30:00,55.4,47.2,30.15,NE,45,2.0,3.0,74,0.00,,,0.00,WUHU21623XXSP,2013-01-27 10:30:00,
2013-01-27 04:31:00,55.4,47.2,30.15,NE,49,2.0,3.0,74,0.00,,,0.00,WUHU21623XXSP,2013-01-27 10:31:00,
2013-01-27 04:35:00,55.4,47.2,30.15,ENE,59,2.0,4.0,74,0.00,,,0.00,WUHU21623XXSP,2013-01-27 10:35:00,
2013-01-27 04:36:00,55.4,47.2,30.15,ENE,67,1.0,4.0,74,0.00,,,0.00,WUHU21623XXSP,2013-01-27 10:36:00,
2013-01-27 04:40:00,55.4,47.2,30.15,NE,45,3.0,4.0,74,0.00,,,0.00,WUHU21623XXSP,2013-01-27 10:40:00,
2013-01-27 04:41:00,55.4,47.2,30.15,ENE,67,4.0,4.0,74,0.00,,,0.00,WUHU21623XXSP,2013-01-27 10:41:00,
2013-01-27 04:45:00,55.4,47.6,30.15,East,90,3.0,4.0,75,0.00,,,0.00,WUHU21623XXSP,2013-01-27 10:45:00,
2013-01-27 04:46:00,55.4,47.6,30.15,East,96,2.0,4.0,75,0.00,,,0.00,WUHU21623XXSP,2013-01-27 10:46:00,
2013-01-27 04:50:00,55.6,47.7,30.15,East,90,2.0,4.0,75,0.00,,,0.00,WUHU21623XXSP,2013-01-27 10:50:00,
2013-01-27 04:51:00,55.4,47.6,30.15,East,90,3.0,3.0,75,0.00,,,0.00,WUHU21623XXSP,2013-01-27 10:51:00,
2013-01-27 04:55:00,55.6,47.7,30.15,ENE,67,1.0,3.0,75,0.00,,,0.00,WUHU21623XXSP,2013-01-27 10:55:00,
2013-01-27 04:56:00,55.6,47.7,30.15,ESE,112,0.0,3.0,75,0.00,,,0.00,WUHU21623XXSP,2013-01-27 10:56:00,
2013-01-27 05:06:00,55.6,47.7,30.15,ESE,112,0.0,2.0,75,0.00,,,0.00,WUHU21623XXSP,2013-01-27 11:06:00,
2013-01-27 05:11:00,55.6,47.7,30.14,ENE,67,5.0,6.0,75,0.00,,,0.00,WUHU21623XXSP,2013-01-27 11:11:00,
2013-01-27 05:12:00,55.6,47.7,30.14,East,91,3.0,6.0,75,0.00,,,0.00,WUHU21623XXSP,2013-01-27 11:12:00,
2013-01-27 05:16:00,55.6,47.7,30.15,ENE,67,3.0,6.0,75,0.00,,,0.00,WUHU21623XXSP,2013-01-27 11:16:00,
2013-01-27 05:17:00,55.6,47.7,30.15,ENE,67,2.0,6.0,75,0.00,,,0.00,WUHU21623XXSP,2013-01-27 11:17:00,
2013-01-27 05:21:00,55.6,47.7,30.15,ENE,63,3.0,4.0,75,0.00,,,0.00,WUHU21623XXSP,2013-01-27 11:21:00,
2013-01-27 05:22:00,55.6,47.7,30.15,NE,54,3.0,4.0,75,0.00,,,0.00,WUHU21623XXSP,2013-01-27 11:22:00,
2013-01-27 05:26:00,55.6,47.7,30.15,East,79,3.0,5.0,75,0.00,,,0.00,WUHU21623XXSP,2013-01-27 11:26:00,
2013-01-27 05:27:00,55.6,47.7,30.14,East,79,3.0,5.0,75,0.00,,,0.00,WUHU21623XXSP,2013-01-27 11:27:00,
2013-01-27 05:31:00,55.6,47.7,30.15,ESE,102,3.0,5.0,75,0.00,,,0.00,WUHU21623XXSP,2013-01-27 11:31:00,
2013-01-27 05:32:00,55.6,47.7,30.15,ESE,108,3.0,5.0,75,0.00,,,0.00,WUHU21623XXSP,2013-01-27 11:32:00,
2013-01-27 05:33:00,55.6,47.7,30.14,ESE,104,2.0,5.0,75,0.00,,,0.00,WUHU21623XXSP,2013-01-27 11:33:00,
2013-01-27 05:36:00,55.6,47.7,30.15,East,90,4.0,5.0,75,0.00,,,0.00,WUHU21623XXSP,2013-01-27 11:36:00,
2013-01-27 05:37:00,55.6,47.7,30.15,East,93,3.0,5.0,75,0.00,,,0.00,WUHU21623XXSP,2013-01-27 11:37:00,
2013-01-27 05:38:00,55.6,47.7,30.14,East,82,3.0,5.0,75,0.00,,,0.00,WUHU21623XXSP,2013-01-27 11:38:00,
2013-01-27 05:41:00,55.6,47.7,30.14,East,90,2.0,4.0,75,0.00,,,0.00,WUHU21623XXSP,2013-01-27 11:41:00,
2013-01-27 05:42:00,55.6,47.7,30.14,ESE,112,3.0,4.0,75,0.00,,,0.00,WUHU21623XXSP,2013-01-27 11:42:00,
2013-01-27 05:43:00,55.6,47.7,30.14,ESE,112,4.0,4.0,75,0.00,,,0.00,WUHU21623XXSP,2013-01-27 11:43:00,
2013-01-27 05:46:00,55.6,47.7,30.14,East,95,3.0,5.0,75,0.00,,,0.00,WUHU21623XXSP,2013-01-27 11:46:00,
2013-01-27 05:47:00,55.6,47.7,30.14,ESE,112,3.0,5.0,75,0.00,,,0.00,WUHU21623XXSP,2013-01-27 11:47:00,
2013-01-27 05:48:00,55.8,47.9,30.14,East,95,2.0,5.0,75,0.00,,,0.00,WUHU21623XXSP,2013-01-27 11:48:00,
2013-01-27 05:51:00,55.6,47.7,30.14,ESE,110,3.0,5.0,75,0.00,,,0.00,WUHU21623XXSP,2013-01-27 11:51:00,
2013-01-27 05:52:00,55.8,47.9,30.14,ESE,105,3.0,5.0,75,0.00,,,0.00,WUHU21623XXSP,2013-01-27 11:52:00,
2013-01-27 05:53:00,55.8,47.9,30.14,East,98,3.0,5.0,75,0.00,,,0.00,WUHU21623XXSP,2013-01-27 11:53:00,
2013-01-27 05:57:00,55.8,47.9,30.14,ESE,122,2.0,4.0,75,0.00,,,0.00,WUHU21623XXSP,2013-01-27 11:57:00,
2013-01-27 05:58:00,55.8,47.9,30.14,East,90,2.0,4.0,75,0.00,,,0.00,WUHU21623XXSP,2013-01-27 11:58:00,
2013-01-27 06:10:00,55.8,47.9,30.14,ESE,112,4.0,4.0,75,0.00,,,0.00,WUHU21623XXSP,2013-01-27 12:10:00,
2013-01-27 06:15:00,55.8,47.9,30.15,ESE,112,2.0,5.0,75,0.00,,,0.00,WUHU21623XXSP,2013-01-27 12:15:00,
2013-01-27 06:16:00,55.9,48.1,30.14,SE,135,3.0,5.0,75,0.00,,,0.00,WUHU21623XXSP,2013-01-27 12:16:00,
2013-01-27 06:20:00,55.9,48.1,30.15,ESE,106,3.0,5.0,75,0.00,,,0.00,WUHU21623XXSP,2013-01-27 12:20:00,
2013-01-27 06:21:00,55.9,48.1,30.15,SE,135,3.0,5.0,75,0.00,,,0.00,WUHU21623XXSP,2013-01-27 12:21:00,
2013-01-27 06:25:00,55.9,48.1,30.15,ESE,112,4.0,6.0,75,0.00,,,0.00,WUHU21623XXSP,2013-01-27 12:25:00,
2013-01-27 06:26:00,55.9,48.1,30.15,East,90,3.0,6.0,75,0.00,,,0.00,WUHU21623XXSP,2013-01-27 12:26:00,
2013-01-27 06:30:00,55.9,48.1,30.15,SSE,150,2.0,6.0,75,0.00,,,0.00,WUHU21623XXSP,2013-01-27 12:30:00,
2013-01-27 06:31:00,55.9,48.1,30.14,East,97,3.0,6.0,75,0.00,,,0.00,WUHU21623XXSP,2013-01-27 12:31:00,
2013-01-27 06:35:00,55.9,48.4,30.15,East,94,3.0,5.0,76,0.00,,,0.00,WUHU21623XXSP,2013-01-27 12:35:00,
2013-01-27 06:36:00,55.9,48.4,30.15,East,101,3.0,5.0,76,0.00,,,0.00,WUHU21623XXSP,2013-01-27 12:36:00,
2013-01-27 06:37:00,55.9,48.4,30.14,ESE,112,6.0,6.0,76,0.00,,,0.00,WUHU21623XXSP,2013-01-27 12:37:00,
2013-01-27 06:40:00,55.9,48.4,30.14,ESE,109,5.0,10.0,76,0.00,,,0.00,WUHU21623XXSP,2013-01-27 12:40:00,
2013-01-27 06:41:00,55.9,48.4,30.14,ESE,111,5.0,10.0,76,0.00,,,0.00,WUHU21623XXSP,2013-01-27 12:41:00,
2013-01-27 06:42:00,55.9,48.4,30.14,ESE,118,3.0,10.0,76,0.00,,,0.00,WUHU21623XXSP,2013-01-27 12:42:00,
2013-01-27 06:45:00,55.9,48.4,30.14,ESE,112,5.0,10.0,76,0.00,,,0.00,WUHU21623XXSP,2013-01-27 12:45:00,
2013-01-27 06:46:00,55.9,48.4,30.14,ESE,110,4.0,10.0,76,0.00,,,0.00,WUHU21623XXSP,2013-01-27 12:46:00,
2013-01-27 06:47:00,56.1,48.6,30.14,ESE,112,4.0,10.0,76,0.00,,,0.00,WUHU21623XXSP,2013-01-27 12:47:00,
2013-01-27 06:50:00,56.1,48.6,30.15,SSE,147,2.0,7.0,76,0.00,,,0.00,WUHU21623XXSP,2013-01-27 12:50:00,
2013-01-27 06:51:00,56.1,48.6,30.15,SSE,147,2.0,7.0,76,0.00,,,0.00,WUHU21623XXSP,2013-01-27 12:51:00,
2013-01-27 06:52:00,56.1,48.6,30.15,SE,135,3.0,7.0,76,0.00,,,0.00,WUHU21623XXSP,2013-01-27 12:52:00,
2013-01-27 06:55:00,56.1,48.6,30.15,SE,124,4.0,5.0,76,0.00,,,0.00,WUHU21623XXSP,2013-01-27 12:55:00,
2013-01-27 06:56:00,56.3,48.8,30.15,ESE,112,3.0,5.0,76,0.00,,,0.00,WUHU21623XXSP,2013-01-27 12:56:00,
2013-01-27 06:58:00,56.3,49.1,30.15,SE,136,3.0,5.0,77,0.00,,,0.00,WUHU21623XXSP,2013-01-27 12:58:00,
2013-01-27 07:00:00,56.3,49.1,30.15,SSE,157,1.0,5.0,77,0.00,,,0.00,WUHU21623XXSP,2013-01-27 13:00:00,
2013-01-27 07:01:00,56.3,49.1,30.15,SSE,157,1.0,5.0,77,0.00,,,0.00,WUHU21623XXSP,2013-01-27 13:01:00,
2013-01-27 07:03:00,56.5,49.3,30.15,SSE,157,1.0,5.0,77,0.00,,,0.00,WUHU21623XXSP,2013-01-27 13:03:00,
2013-01-27 07:06:00,56.5,49.3,30.15,ESE,112,2.0,5.0,77,0.00,,,0.00,WUHU21623XXSP,2013-01-27 13:06:00,
2013-01-27 07:07:00,56.5,49.3,30.15,ESE,116,2.0,5.0,77,0.00,,,0.00,WUHU21623XXSP,2013-01-27 13:07:00,
2013-01-27 07:08:00,56.5,49.3,30.15,ESE,120,1.0,2.0,77,0.00,,,0.00,WUHU21623XXSP,2013-01-27 13:08:00,
2013-01-27 07:11:00,56.5,49.3,30.15,SE,143,2.0,4.0,77,0.00,,,0.00,WUHU21623XXSP,2013-01-27 13:11:00,
2013-01-27 07:12:00,56.5,49.3,30.15,SE,135,2.0,4.0,77,0.00,,,0.00,WUHU21623XXSP,2013-01-27 13:12:00,
2013-01-27 07:13:00,56.5,49.3,30.16,East,93,2.0,4.0,77,0.00,,,0.00,WUHU21623XXSP,2013-01-27 13:13:00,
2013-01-27 07:16:00,56.5,49.3,30.15,SE,135,3.0,4.0,77,0.00,,,0.00,WUHU21623XXSP,2013-01-27 13:16:00,
2013-01-27 07:17:00,56.8,49.6,30.15,ESE,112,4.0,4.0,77,0.00,,,0.00,WUHU21623XXSP,2013-01-27 13:17:00,
2013-01-27 07:18:00,56.8,49.6,30.15,ESE,121,3.0,5.0,77,0.00,,,0.00,WUHU21623XXSP,2013-01-27 13:18:00,
2013-01-27 07:21:00,56.8,49.6,30.15,SE,127,3.0,5.0,77,0.00,,,0.00,WUHU21623XXSP,2013-01-27 13:21:00,
2013-01-27 07:22:00,56.8,49.6,30.15,ESE,112,4.0,5.0,77,0.00,,,0.00,WUHU21623XXSP,2013-01-27 13:22:00,
2013-01-27 07:23:00,56.8,49.6,30.15,ESE,112,5.0,5.0,77,0.00,,,0.00,WUHU21623XXSP,2013-01-27 13:23:00,
2013-01-27 07:24:00,56.8,49.6,30.15,SE,125,4.0,5.0,77,0.00,,,0.00,WUHU21623XXSP,2013-01-27 13:24:00,
2013-01-27 07:26:00,56.8,49.6,30.15,ESE,112,3.0,5.0,77,0.00,,,0.00,WUHU21623XXSP,2013-01-27 13:26:00,
2013-01-27 07:27:00,56.8,49.6,30.15,SE,125,3.0,6.0,77,0.00,,,0.00,WUHU21623XXSP,2013-01-27 13:27:00,
2013-01-27 07:28:00,56.8,49.6,30.15,ESE,117,4.0,6.0,77,0.00,,,0.00,WUHU21623XXSP,2013-01-27 13:28:00,
2013-01-27 07:29:00,56.8,49.6,30.15,SE,135,5.0,6.0,77,0.00,,,0.00,WUHU21623XXSP,2013-01-27 13:29:00,
2013-01-27 07:31:00,56.8,49.6,30.15,SE,140,3.0,6.0,77,0.00,,,0.00,WUHU21623XXSP,2013-01-27 13:31:00,
2013-01-27 07:33:00,57.0,49.8,30.15,ESE,123,3.0,6.0,77,0.00,,,0.00,WUHU21623XXSP,2013-01-27 13:33:00,
2013-01-27 07:34:00,57.0,49.8,30.15,SE,137,3.0,6.0,77,0.00,,,0.00,WUHU21623XXSP,2013-01-27 13:34:00,
2013-01-27 07:36:00,57.0,49.8,30.15,SE,141,3.0,6.0,77,0.00,,,0.00,WUHU21623XXSP,2013-01-27 13:36:00,
2013-01-27 07:38:00,57.0,50.2,30.15,South,180,5.0,5.0,78,0.00,,,0.00,WUHU21623XXSP,2013-01-27 13:38:00,
2013-01-27 07:39:00,57.0,50.2,30.15,SE,142,3.0,5.0,78,0.00,,,0.00,WUHU21623XXSP,2013-01-27 13:39:00,
2013-01-27 07:41:00,57.0,50.2,30.15,ESE,112,4.0,5.0,78,0.00,,,0.00,WUHU21623XXSP,2013-01-27 13:41:00,
2013-01-27 07:43:00,57.0,50.2,30.15,SE,135,5.0,6.0,78,0.00,,,0.00,WUHU21623XXSP,2013-01-27 13:43:00,
2013-01-27 07:44:00,57.0,50.2,30.15,SE,135,5.0,6.0,78,0.00,,,0.00,WUHU21623XXSP,2013-01-27 13:44:00,
2013-01-27 07:47:00,57.0,50.2,30.15,SSE,157,3.0,6.0,78,0.00,,,0.00,WUHU21623XXSP,2013-01-27 13:47:00,
2013-01-27 07:48:00,57.0,50.2,30.15,South,180,4.0,6.0,78,0.00,,,0.00,WUHU21623XXSP,2013-01-27 13:48:00,
2013-01-27 07:49:00,57.0,50.2,30.15,SSE,151,3.0,6.0,78,0.00,,,0.00,WUHU21623XXSP,2013-01-27 13:49:00,
2013-01-27 07:52:00,57.0,50.2,30.16,SE,143,4.0,6.0,78,0.00,,,0.00,WUHU21623XXSP,2013-01-27 13:52:00,
2013-01-27 07:53:00,57.0,50.2,30.16,SSE,149,3.0,6.0,78,0.00,,,0.00,WUHU21623XXSP,2013-01-27 13:53:00,
2013-01-27 07:54:00,57.0,50.2,30.16,South,180,3.0,6.0,78,0.00,,,0.00,WUHU21623XXSP,2013-01-27 13:54:00,
2013-01-27 07:57:00,57.4,50.5,30.16,SSE,164,2.0,7.0,78,0.00,,,0.00,WUHU21623XXSP,2013-01-27 13:57:00,
2013-01-27 07:58:00,57.4,50.5,30.16,SSE,148,3.0,7.0,78,0.00,,,0.00,WUHU21623XXSP,2013-01-27 13:58:00,
2013-01-27 07:59:00,57.4,50.5,30.16,SE,141,3.0,7.0,78,0.00,,,0.00,WUHU21623XXSP,2013-01-27 13:59:00,
2013-01-27 08:02:00,57.4,50.5,30.16,SSE,157,7.0,7.0,78,0.00,,,0.00,WUHU21623XXSP,2013-01-27 14:02:00,
2013-01-27 08:04:00,57.4,50.5,30.15,SSE,158,4.0,7.0,78,0.00,,,0.00,WUHU21623XXSP,2013-01-27 14:04:00,
2013-01-27 08:07:00,57.4,50.9,30.15,SE,141,3.0,7.0,79,0.00,,,0.00,WUHU21623XXSP,2013-01-27 14:07:00,
2013-01-27 08:09:00,57.6,51.1,30.15,SE,134,3.0,7.0,79,0.00,,,0.00,WUHU21623XXSP,2013-01-27 14:09:00,
2013-01-27 08:12:00,57.6,51.1,30.15,SSE,159,4.0,6.0,79,0.00,,,0.00,WUHU21623XXSP,2013-01-27 14:12:00,
2013-01-27 08:14:00,57.6,51.1,30.15,SE,142,4.0,7.0,79,0.00,,,0.00,WUHU21623XXSP,2013-01-27 14:14:00,
2013-01-27 08:17:00,57.7,51.3,30.15,SSE,153,4.0,7.0,79,0.00,,,0.00,WUHU21623XXSP,2013-01-27 14:17:00,
2013-01-27 08:19:00,57.7,51.3,30.16,SE,137,3.0,7.0,79,0.00,,,0.00,WUHU21623XXSP,2013-01-27 14:19:00,
2013-01-27 08:20:00,57.7,51.3,30.15,SE,135,4.0,7.0,79,0.00,,,0.00,WUHU21623XXSP,2013-01-27 14:20:00,
2013-01-27 08:22:00,57.7,51.3,30.16,SSE,157,4.0,7.0,79,0.00,,,0.00,WUHU21623XXSP,2013-01-27 14:22:00,
2013-01-27 08:24:00,57.9,51.4,30.16,SSE,166,3.0,6.0,79,0.00,,,0.00,WUHU21623XXSP,2013-01-27 14:24:00,
2013-01-27 08:25:00,57.9,51.4,30.16,South,180,9.0,9.0,79,0.00,,,0.00,WUHU21623XXSP,2013-01-27 14:25:00,
2013-01-27 08:28:00,57.9,51.4,30.16,SSE,147,5.0,9.0,79,0.00,,,0.00,WUHU21623XXSP,2013-01-27 14:28:00,
2013-01-27 08:29:00,57.9,51.4,30.16,SE,137,5.0,9.0,79,0.00,,,0.00,WUHU21623XXSP,2013-01-27 14:29:00,
2013-01-27 08:30:00,57.9,51.4,30.16,SE,137,5.0,9.0,79,0.00,,,0.00,WUHU21623XXSP,2013-01-27 14:30:00,
2013-01-27 08:33:00,57.9,51.4,30.16,SSE,157,7.0,9.0,79,0.00,,,0.00,WUHU21623XXSP,2013-01-27 14:33:00,
2013-01-27 08:34:00,57.9,51.4,30.16,SSE,154,6.0,9.0,79,0.00,,,0.00,WUHU21623XXSP,2013-01-27 14:34:00,
2013-01-27 08:35:00,58.1,51.6,30.16,SSE,151,6.0,9.0,79,0.00,,,0.00,WUHU21623XXSP,2013-01-27 14:35:00,
2013-01-27 08:38:00,58.1,51.6,30.16,SSW,202,4.0,9.0,79,0.00,,,0.00,WUHU21623XXSP,2013-01-27 14:38:00,
2013-01-27 08:39:00,58.1,51.6,30.16,SSE,161,3.0,9.0,79,0.00,,,0.00,WUHU21623XXSP,2013-01-27 14:39:00,
2013-01-27 08:40:00,58.1,51.6,30.16,SSE,157,5.0,9.0,79,0.00,,,0.00,WUHU21623XXSP,2013-01-27 14:40:00,
2013-01-27 08:43:00,58.3,52.2,30.16,SSE,156,4.0,9.0,80,0.00,,,0.00,WUHU21623XXSP,2013-01-27 14:43:00,
2013-01-27 08:44:00,58.3,52.2,30.16,South,180,5.0,6.0,80,0.00,,,0.00,WUHU21623XXSP,2013-01-27 14:44:00,
2013-01-27 08:45:00,58.3,52.2,30.16,SSE,160,4.0,6.0,80,0.00,,,0.00,WUHU21623XXSP,2013-01-27 14:45:00,
2013-01-27 08:48:00,58.3,52.2,30.15,SSE,149,3.0,6.0,80,0.00,,,0.00,WUHU21623XXSP,2013-01-27 14:48:00,
2013-01-27 08:50:00,58.3,52.2,30.16,SE,135,3.0,6.0,80,0.00,,,0.00,WUHU21623XXSP,2013-01-27 14:50:00,
2013-01-27 08:53:00,58.5,52.3,30.15,SE,135,6.0,10.0,80,0.00,,,0.00,WUHU21623XXSP,2013-01-27 14:53:00,
2013-01-27 08:55:00,58.6,52.5,30.15,South,180,9.0,10.0,80,0.00,,,0.00,WUHU21623XXSP,2013-01-27 14:55:00,
2013-01-27 08:56:00,58.6,52.5,30.15,SSE,163,5.0,10.0,80,0.00,,,0.00,WUHU21623XXSP,2013-01-27 14:56:00,
2013-01-27 08:58:00,58.6,52.5,30.15,SE,145,5.0,10.0,80,0.00,,,0.00,WUHU21623XXSP,2013-01-27 14:58:00,
2013-01-27 09:00:00,58.8,52.7,30.15,SE,142,3.0,10.0,80,0.00,,,0.00,WUHU21623XXSP,2013-01-27 15:00:00,
2013-01-27 09:01:00,58.8,52.7,30.15,SE,130,3.0,10.0,80,0.00,,,0.00,WUHU21623XXSP,2013-01-27 15:01:00,
2013-01-27 09:03:00,58.8,52.7,30.15,SE,135,7.0,9.0,80,0.00,,,0.00,WUHU21623XXSP,2013-01-27 15:03:00,
2013-01-27 09:05:00,58.8,52.7,30.16,SSE,158,7.0,9.0,80,0.00,,,0.00,WUHU21623XXSP,2013-01-27 15:05:00,
2013-01-27 09:06:00,58.8,52.7,30.15,SSE,158,6.0,9.0,80,0.00,,,0.00,WUHU21623XXSP,2013-01-27 15:06:00,
2013-01-27 09:09:00,58.8,52.7,30.15,SSE,167,6.0,10.0,80,0.00,,,0.00,WUHU21623XXSP,2013-01-27 15:09:00,
2013-01-27 09:10:00,58.8,52.7,30.15,SSE,157,6.0,10.0,80,0.00,,,0.00,WUHU21623XXSP,2013-01-27 15:10:00,
2013-01-27 09:11:00,58.8,52.7,30.15,SSE,159,6.0,10.0,80,0.00,,,0.00,WUHU21623XXSP,2013-01-27 15:11:00,
2013-01-27 09:14:00,58.8,52.7,30.15,SE,135,8.0,11.0,80,0.00,,,0.00,WUHU21623XXSP,2013-01-27 15:14:00,
2013-01-27 09:15:00,58.8,52.7,30.16,SSE,157,10.0,11.0,80,0.00,,,0.00,WUHU21623XXSP,2013-01-27 15:15:00,
2013-01-27 09:16:00,58.8,52.7,30.16,SE,135,7.0,11.0,80,0.00,,,0.00,WUHU21623XXSP,2013-01-27 15:16:00,
2013-01-27 09:19:00,58.8,53.0,30.16,SE,135,5.0,11.0,81,0.00,,,0.00,WUHU21623XXSP,2013-01-27 15:19:00,
2013-01-27 09:21:00,58.8,53.0,30.16,SSE,157,5.0,11.0,81,0.00,,,0.00,WUHU21623XXSP,2013-01-27 15:21:00,
2013-01-27 09:24:00,58.8,53.0,30.16,SSE,153,6.0,11.0,81,0.00,,,0.00,WUHU21623XXSP,2013-01-27 15:24:00,
2013-01-27 09:26:00,59.0,53.2,30.16,SSE,168,5.0,11.0,81,0.00,,,0.00,WUHU21623XXSP,2013-01-27 15:26:00,
2013-01-27 09:29:00,59.0,53.2,30.16,SSE,155,6.0,10.0,81,0.00,,,0.00,WUHU21623XXSP,2013-01-27 15:29:00,
2013-01-27 09:31:00,59.2,53.4,30.16,SSE,157,5.0,10.0,81,0.00,,,0.00,WUHU21623XXSP,2013-01-27 15:31:00,
2013-01-27 09:34:00,59.2,53.4,30.16,SSE,157,6.0,10.0,81,0.00,,,0.00,WUHU21623XXSP,2013-01-27 15:34:00,
2013-01-27 09:36:00,59.4,53.6,30.16,SSE,157,7.0,12.0,81,0.00,,,0.00,WUHU21623XXSP,2013-01-27 15:36:00,
2013-01-27 09:39:00,59.4,53.6,30.15,SE,135,8.0,12.0,81,0.00,,,0.00,WUHU21623XXSP,2013-01-27 15:39:00,
2013-01-27 09:41:00,59.4,53.6,30.15,SE,140,7.0,12.0,81,0.00,,,0.00,WUHU21623XXSP,2013-01-27 15:41:00,
2013-01-27 09:42:00,59.4,53.6,30.15,SSE,157,6.0,12.0,81,0.00,,,0.00,WUHU21623XXSP,2013-01-27 15:42:00,
2013-01-27 09:44:00,59.5,53.7,30.15,SSE,157,13.0,13.0,81,0.00,,,0.00,WUHU21623XXSP,2013-01-27 15:44:00,
2013-01-27 09:46:00,59.5,53.7,30.15,SSE,157,10.0,13.0,81,0.00,,,0.00,WUHU21623XXSP,2013-01-27 15:46:00,
2013-01-27 09:47:00,59.5,53.7,30.15,SSE,147,9.0,13.0,81,0.00,,,0.00,WUHU21623XXSP,2013-01-27 15:47:00,
2013-01-27 09:49:00,59.5,53.7,30.15,SSE,157,12.0,13.0,81,0.00,,,0.00,WUHU21623XXSP,2013-01-27 15:49:00,
2013-01-27 09:51:00,59.7,53.7,30.15,SSE,151,8.0,13.0,81,0.00,,,0.00,WUHU21623XXSP,2013-01-27 15:51:00,
2013-01-27 09:52:00,59.7,53.9,30.15,SSE,156,8.0,13.0,81,0.00,,,0.00,WUHU21623XXSP,2013-01-27 15:52:00,
2013-01-27 09:54:00,59.7,53.9,30.16,SSE,161,10.0,15.0,81,0.00,,,0.00,WUHU21623XXSP,2013-01-27 15:54:00,
2013-01-27 09:56:00,59.7,53.9,30.15,SSE,157,10.0,15.0,81,0.00,,,0.00,WUHU21623XXSP,2013-01-27 15:56:00,
2013-01-27 09:57:00,59.7,53.9,30.15,SE,143,6.0,15.0,81,0.00,,,0.00,WUHU21623XXSP,2013-01-27 15:57:00,
2013-01-27 09:59:00,59.9,54.4,30.16,SSE,163,7.0,15.0,82,0.00,,,0.00,WUHU21623XXSP,2013-01-27 15:59:00,
2013-01-27 10:02:00,59.9,54.4,30.15,SE,135,8.0,15.0,82,0.00,,,0.00,WUHU21623XXSP,2013-01-27 16:02:00,
2013-01-27 10:04:00,60.1,54.6,30.16,SSE,151,7.0,11.0,82,0.00,,,0.00,WUHU21623XXSP,2013-01-27 16:04:00,
2013-01-27 10:07:00,60.1,54.6,30.15,SSE,157,11.0,12.0,82,0.00,,,0.00,WUHU21623XXSP,2013-01-27 16:07:00,
2013-01-27 10:09:00,60.1,54.6,30.15,SSE,150,10.0,17.0,82,0.00,,,0.00,WUHU21623XXSP,2013-01-27 16:09:00,
2013-01-27 10:12:00,60.1,54.6,30.15,SSE,167,7.0,17.0,82,0.00,,,0.00,WUHU21623XXSP,2013-01-27 16:12:00,
2013-01-27 10:14:00,60.4,55.0,30.16,SSE,147,7.0,17.0,82,0.00,,,0.00,WUHU21623XXSP,2013-01-27 16:14:00,
2013-01-27 10:17:00,60.4,55.0,30.16,SSE,157,9.0,17.0,82,0.00,,,0.00,WUHU21623XXSP,2013-01-27 16:17:00,
2013-01-27 10:19:00,60.4,55.0,30.16,South,173,6.0,12.0,82,0.00,,,0.00,WUHU21623XXSP,2013-01-27 16:19:00,
2013-01-27 10:22:00,60.4,55.0,30.16,SSE,157,13.0,13.0,82,0.00,,,0.00,WUHU21623XXSP,2013-01-27 16:22:00,
2013-01-27 10:23:00,60.6,55.1,30.16,SSE,164,8.0,13.0,82,0.00,,,0.00,WUHU21623XXSP,2013-01-27 16:23:00,
2013-01-27 10:24:00,60.6,55.1,30.16,SSE,157,10.0,13.0,82,0.00,,,0.00,WUHU21623XXSP,2013-01-27 16:24:00,
2013-01-27 10:27:00,60.6,55.1,30.16,SSW,202,10.0,13.0,82,0.00,,,0.00,WUHU21623XXSP,2013-01-27 16:27:00,
2013-01-27 10:28:00,60.6,55.1,30.16,South,180,8.0,13.0,82,0.00,,,0.00,WUHU21623XXSP,2013-01-27 16:28:00,
2013-01-27 10:30:00,60.8,55.3,30.16,SE,135,7.0,13.0,82,0.00,,,0.00,WUHU21623XXSP,2013-01-27 16:30:00,
2013-01-27 10:32:00,61.0,55.5,30.16,South,180,5.0,11.0,82,0.00,,,0.00,WUHU21623XXSP,2013-01-27 16:32:00,
2013-01-27 10:33:00,61.0,55.5,30.16,South,171,4.0,11.0,82,0.00,,,0.00,WUHU21623XXSP,2013-01-27 16:33:00,
2013-01-27 10:35:00,61.0,55.5,30.16,South,180,7.0,11.0,82,0.00,,,0.00,WUHU21623XXSP,2013-01-27 16:35:00,
2013-01-27 10:38:00,61.2,55.7,30.16,SSE,161,7.0,10.0,82,0.00,,,0.00,WUHU21623XXSP,2013-01-27 16:38:00,
2013-01-27 10:40:00,61.2,55.7,30.16,SSE,158,8.0,10.0,82,0.00,,,0.00,WUHU21623XXSP,2013-01-27 16:40:00,
2013-01-27 10:43:00,61.2,55.7,30.16,SSE,161,6.0,10.0,82,0.00,,,0.00,WUHU21623XXSP,2013-01-27 16:43:00,
2013-01-27 10:45:00,61.3,55.8,30.16,South,169,5.0,10.0,82,0.00,,,0.00,WUHU21623XXSP,2013-01-27 16:45:00,
2013-01-27 10:48:00,61.3,55.8,30.16,SSE,158,11.0,13.0,82,0.00,,,0.00,WUHU21623XXSP,2013-01-27 16:48:00,
2013-01-27 10:50:00,61.3,55.8,30.15,SSE,152,8.0,13.0,82,0.00,,,0.00,WUHU21623XXSP,2013-01-27 16:50:00,
2013-01-27 10:53:00,61.5,56.0,30.15,SSE,155,5.0,13.0,82,0.00,,,0.00,WUHU21623XXSP,2013-01-27 16:53:00,
2013-01-27 10:54:00,61.5,56.0,30.15,SSE,157,12.0,13.0,82,0.00,,,0.00,WUHU21623XXSP,2013-01-27 16:54:00,
2013-01-27 10:55:00,61.5,56.0,30.15,SSE,167,10.0,13.0,82,0.00,,,0.00,WUHU21623XXSP,2013-01-27 16:55:00,
2013-01-27 10:58:00,61.5,56.0,30.15,South,172,6.0,13.0,82,0.00,,,0.00,WUHU21623XXSP,2013-01-27 16:58:00,
2013-01-27 10:59:00,61.5,56.0,30.15,South,171,7.0,13.0,82,0.00,,,0.00,WUHU21623XXSP,2013-01-27 16:59:00,
2013-01-27 11:00:00,61.7,56.2,30.15,SSE,165,8.0,13.0,82,0.00,,,0.00,WUHU21623XXSP,2013-01-27 17:00:00,
2013-01-27 11:03:00,61.9,56.3,30.15,SE,135,9.0,19.0,82,0.00,,,0.00,WUHU21623XXSP,2013-01-27 17:03:00,
2013-01-27 11:04:00,61.9,56.2,30.15,SSE,156,9.0,19.0,82,0.00,,,0.00,WUHU21623XXSP,2013-01-27 17:04:00,
2013-01-27 11:05:00,61.9,56.3,30.16,SSE,157,10.0,19.0,82,0.00,,,0.00,WUHU21623XXSP,2013-01-27 17:05:00,
2013-01-27 11:08:00,61.9,56.0,30.16,South,170,8.0,19.0,81,0.00,,,0.00,WUHU21623XXSP,2013-01-27 17:08:00,
2013-01-27 11:09:00,61.9,56.0,30.16,South,177,8.0,19.0,81,0.00,,,0.00,WUHU21623XXSP,2013-01-27 17:09:00,
2013-01-27 11:10:00,62.1,56.1,30.15,South,180,8.0,19.0,81,0.00,,,0.00,WUHU21623XXSP,2013-01-27 17:10:00,
2013-01-27 11:13:00,62.1,56.1,30.15,South,190,6.0,13.0,81,0.00,,,0.00,WUHU21623XXSP,2013-01-27 17:13:00,
2013-01-27 11:14:00,62.1,56.1,30.15,South,179,6.0,13.0,81,0.00,,,0.00,WUHU21623XXSP,2013-01-27 17:14:00,
2013-01-27 11:15:00,62.2,56.3,30.15,South,180,6.0,13.0,81,0.00,,,0.00,WUHU21623XXSP,2013-01-27 17:15:00,
2013-01-27 11:18:00,62.2,56.6,30.15,South,181,6.0,11.0,82,0.00,,,0.00,WUHU21623XXSP,2013-01-27 17:18:00,
2013-01-27 11:19:00,62.2,56.6,30.15,South,175,5.0,10.0,82,0.00,,,0.00,WUHU21623XXSP,2013-01-27 17:19:00,
2013-01-27 11:20:00,62.2,56.6,30.15,South,172,4.0,10.0,82,0.00,,,0.00,WUHU21623XXSP,2013-01-27 17:20:00,
2013-01-27 11:23:00,62.2,56.3,30.15,South,180,5.0,10.0,81,0.00,,,0.00,WUHU21623XXSP,2013-01-27 17:23:00,
2013-01-27 11:24:00,62.2,56.3,30.15,SSE,157,7.0,10.0,81,0.00,,,0.00,WUHU21623XXSP,2013-01-27 17:24:00,
2013-01-27 11:26:00,62.4,56.5,30.15,SSE,159,4.0,10.0,81,0.00,,,0.00,WUHU21623XXSP,2013-01-27 17:26:00,
2013-01-27 11:28:00,62.4,56.5,30.15,South,180,6.0,10.0,81,0.00,,,0.00,WUHU21623XXSP,2013-01-27 17:28:00,
2013-01-27 11:29:00,62.4,56.5,30.15,South,180,10.0,10.0,81,0.00,,,0.00,WUHU21623XXSP,2013-01-27 17:29:00,
2013-01-27 11:31:00,62.4,56.5,30.15,South,180,12.0,13.0,81,0.00,,,0.00,WUHU21623XXSP,2013-01-27 17:31:00,
2013-01-27 11:34:00,62.4,56.5,30.15,SSE,157,8.0,15.0,81,0.00,,,0.00,WUHU21623XXSP,2013-01-27 17:34:00,
2013-01-27 11:36:00,62.4,56.5,30.15,SE,135,5.0,15.0,81,0.00,,,0.00,WUHU21623XXSP,2013-01-27 17:36:00,
2013-01-27 11:39:00,62.4,56.5,30.14,South,171,4.0,15.0,81,0.00,,,0.00,WUHU21623XXSP,2013-01-27 17:39:00,
2013-01-27 11:41:00,62.6,56.6,30.14,South,185,5.0,15.0,81,0.00,,,0.00,WUHU21623XXSP,2013-01-27 17:41:00,
2013-01-27 11:44:00,62.6,56.6,30.14,SSW,202,9.0,11.0,81,0.00,,,0.00,WUHU21623XXSP,2013-01-27 17:44:00,
2013-01-27 11:46:00,62.8,56.8,30.14,South,180,11.0,11.0,81,0.00,,,0.00,WUHU21623XXSP,2013-01-27 17:46:00,
2013-01-27 11:49:00,62.8,56.8,30.14,South,180,13.0,13.0,81,0.00,,,0.00,WUHU21623XXSP,2013-01-27 17:49:00,
2013-01-27 11:51:00,62.8,56.8,30.14,SSE,157,10.0,13.0,81,0.00,,,0.00,WUHU21623XXSP,2013-01-27 17:51:00,
2013-01-27 11:54:00,63.0,57.0,30.13,South,180,9.0,13.0,81,0.00,,,0.00,WUHU21623XXSP,2013-01-27 17:54:00,
2013-01-27 11:55:00,62.8,56.5,30.14,SSE,157,10.0,13.0,80,0.00,,,0.00,WUHU21623XXSP,2013-01-27 17:55:00,
2013-01-27 11:56:00,62.8,56.5,30.13,South,173,9.0,13.0,80,0.00,,,0.00,WUHU21623XXSP,2013-01-27 17:56:00,
2013-01-27 11:59:00,62.8,56.5,30.13,South,190,8.0,16.0,80,0.00,,,0.00,WUHU21623XXSP,2013-01-27 17:59:00,
2013-01-27 12:00:00,63.0,56.7,30.13,South,180,9.0,16.0,80,0.00,,,0.00,WUHU21623XXSP,2013-01-27 18:00:00,
2013-01-27 12:01:00,63.0,56.7,30.13,South,180,12.0,16.0,80,0.00,,,0.00,WUHU21623XXSP,2013-01-27 18:01:00,
2013-01-27 12:04:00,63.0,56.7,30.13,SSE,164,6.0,16.0,80,0.00,,,0.00,WUHU21623XXSP,2013-01-27 18:04:00,
2013-01-27 12:05:00,63.0,56.7,30.13,South,174,6.0,16.0,80,0.00,,,0.00,WUHU21623XXSP,2013-01-27 18:05:00,
2013-01-27 12:07:00,63.0,56.7,30.13,South,187,5.0,16.0,80,0.00,,,0.00,WUHU21623XXSP,2013-01-27 18:07:00,
2013-01-27 12:09:00,63.1,56.8,30.13,SSE,156,7.0,12.0,80,0.00,,,0.00,WUHU21623XXSP,2013-01-27 18:09:00,
2013-01-27 12:10:00,63.1,56.8,30.13,SSE,160,6.0,12.0,80,0.00,,,0.00,WUHU21623XXSP,2013-01-27 18:10:00,
2013-01-27 12:12:00,63.1,56.8,30.12,SSE,157,6.0,12.0,80,0.00,,,0.00,WUHU21623XXSP,2013-01-27 18:12:00,
2013-01-27 12:14:00,63.1,56.8,30.12,SSE,157,9.0,12.0,80,0.00,,,0.00,WUHU21623XXSP,2013-01-27 18:14:00,
2013-01-27 12:15:00,63.1,56.8,30.12,SSE,157,9.0,11.0,80,0.00,,,0.00,WUHU21623XXSP,2013-01-27 18:15:00,
2013-01-27 12:17:00,63.1,56.8,30.11,SE,135,6.0,11.0,80,0.00,,,0.00,WUHU21623XXSP,2013-01-27 18:17:00,
2013-01-27 12:19:00,63.3,57.0,30.11,SSE,151,8.0,11.0,80,0.00,,,0.00,WUHU21623XXSP,2013-01-27 18:19:00,
2013-01-27 12:20:00,63.3,57.0,30.11,SE,135,12.0,12.0,80,0.00,,,0.00,WUHU21623XXSP,2013-01-27 18:20:00,
2013-01-27 12:22:00,63.3,57.0,30.11,SSE,159,7.0,12.0,80,0.00,,,0.00,WUHU21623XXSP,2013-01-27 18:22:00,
2013-01-27 12:24:00,63.5,57.2,30.10,South,174,7.0,12.0,80,0.00,,,0.00,WUHU21623XXSP,2013-01-27 18:24:00,
2013-01-27 12:25:00,63.5,57.2,30.10,South,173,7.0,12.0,80,0.00,,,0.00,WUHU21623XXSP,2013-01-27 18:25:00,
2013-01-27 12:27:00,63.7,57.4,30.10,SSE,162,8.0,16.0,80,0.00,,,0.00,WUHU21623XXSP,2013-01-27 18:27:00,
2013-01-27 12:29:00,63.7,57.4,30.10,SSE,157,11.0,16.0,80,0.00,,,0.00,WUHU21623XXSP,2013-01-27 18:29:00,
2013-01-27 12:30:00,63.7,57.4,30.10,SSE,157,11.0,16.0,80,0.00,,,0.00,WUHU21623XXSP,2013-01-27 18:30:00,
2013-01-27 12:32:00,63.9,57.6,30.10,SSE,151,6.0,16.0,80,0.00,,,0.00,WUHU21623XXSP,2013-01-27 18:32:00,
2013-01-27 12:35:00,64.0,57.7,30.10,SSE,157,7.0,16.0,80,0.00,,,0.00,WUHU21623XXSP,2013-01-27 18:35:00,
2013-01-27 12:37:00,64.0,57.7,30.10,SSE,149,8.0,15.0,80,0.00,,,0.00,WUHU21623XXSP,2013-01-27 18:37:00,
2013-01-27 12:40:00,64.2,57.9,30.10,SSE,155,10.0,17.0,80,0.00,,,0.00,WUHU21623XXSP,2013-01-27 18:40:00,
2013-01-27 12:41:00,64.2,57.9,30.10,SSE,166,8.0,17.0,80,0.00,,,0.00,WUHU21623XXSP,2013-01-27 18:41:00,
2013-01-27 12:43:00,64.2,57.9,30.10,SSE,157,14.0,17.0,80,0.00,,,0.00,WUHU21623XXSP,2013-01-27 18:43:00,
2013-01-27 12:45:00,64.2,57.9,30.10,SE,135,10.0,17.0,80,0.00,,,0.00,WUHU21623XXSP,2013-01-27 18:45:00,
2013-01-27 12:46:00,64.2,57.9,30.09,SSE,164,7.0,17.0,80,0.00,,,0.00,WUHU21623XXSP,2013-01-27 18:46:00,
2013-01-27 12:48:00,64.2,57.9,30.09,South,180,8.0,17.0,80,0.00,,,0.00,WUHU21623XXSP,2013-01-27 18:48:00,
2013-01-27 12:50:00,64.6,58.3,30.09,South,180,8.0,17.0,80,0.00,,,0.00,WUHU21623XXSP,2013-01-27 18:50:00,
2013-01-27 12:51:00,64.6,58.3,30.09,SSE,157,12.0,17.0,80,0.00,,,0.00,WUHU21623XXSP,2013-01-27 18:51:00,
2013-01-27 12:53:00,64.6,58.3,30.09,SSE,156,12.0,18.0,80,0.00,,,0.00,WUHU21623XXSP,2013-01-27 18:53:00,
2013-01-27 12:56:00,64.6,57.9,30.09,SSE,166,7.0,18.0,79,0.00,,,0.00,WUHU21623XXSP,2013-01-27 18:56:00,
2013-01-27 12:58:00,64.8,58.1,30.09,SSE,158,9.0,18.0,79,0.00,,,0.00,WUHU21623XXSP,2013-01-27 18:58:00,
2013-01-27 13:01:00,64.8,58.1,30.08,SSE,157,9.0,18.0,79,0.00,,,0.00,WUHU21623XXSP,2013-01-27 19:01:00,
2013-01-27 13:02:00,64.9,58.3,30.08,SSE,163,8.0,18.0,79,0.00,,,0.00,WUHU21623XXSP,2013-01-27 19:02:00,
2013-01-27 13:03:00,64.9,58.3,30.07,SSE,157,6.0,14.0,79,0.00,,,0.00,WUHU21623XXSP,2013-01-27 19:03:00,
2013-01-27 13:06:00,65.1,58.4,30.07,SE,135,12.0,14.0,79,0.00,,,0.00,WUHU21623XXSP,2013-01-27 19:06:00,
2013-01-27 13:07:00,65.1,58.4,30.08,SSE,151,8.0,14.0,79,0.00,,,0.00,WUHU21623XXSP,2013-01-27 19:07:00,
2013-01-27 13:08:00,65.1,58.4,30.08,South,175,7.0,13.0,79,0.00,,,0.00,WUHU21623XXSP,2013-01-27 19:08:00,
2013-01-27 13:11:00,65.3,58.6,30.07,SSE,168,11.0,19.0,79,0.00,,,0.00,WUHU21623XXSP,2013-01-27 19:11:00,
2013-01-27 13:12:00,65.3,58.6,30.07,South,180,9.0,19.0,79,0.00,,,0.00,WUHU21623XXSP,2013-01-27 19:12:00,
2013-01-27 13:14:00,65.3,58.7,30.07,SSE,153,10.0,19.0,79,0.00,,,0.00,WUHU21623XXSP,2013-01-27 19:14:00,
2013-01-27 13:16:00,65.5,58.8,30.07,SSE,159,10.0,19.0,79,0.00,,,0.00,WUHU21623XXSP,2013-01-27 19:16:00,
2013-01-27 13:17:00,65.7,59.0,30.07,SSE,164,10.0,19.0,79,0.00,,,0.00,WUHU21623XXSP,2013-01-27 19:17:00,
2013-01-27 13:19:00,65.8,59.2,30.07,South,184,6.0,19.0,79,0.00,,,0.00,WUHU21623XXSP,2013-01-27 19:19:00,
2013-01-27 13:21:00,65.8,59.2,30.07,SE,135,9.0,18.0,79,0.00,,,0.00,WUHU21623XXSP,2013-01-27 19:21:00,
2013-01-27 13:22:00,65.8,59.2,30.07,SE,135,10.0,18.0,79,0.00,,,0.00,WUHU21623XXSP,2013-01-27 19:22:00,
2013-01-27 13:24:00,66.0,59.3,30.07,SSE,157,16.0,16.0,79,0.00,,,0.00,WUHU21623XXSP,2013-01-27 19:24:00,
2013-01-27 13:26:00,66.0,59.3,30.07,SSE,166,9.0,16.0,79,0.00,,,0.00,WUHU21623XXSP,2013-01-27 19:26:00,
2013-01-27 13:27:00,66.0,59.3,30.07,South,180,12.0,16.0,79,0.00,,,0.00,WUHU21623XXSP,2013-01-27 19:27:00,
2013-01-27 13:28:00,66.0,59.3,30.07,South,171,6.0,16.0,79,0.00,,,0.00,WUHU21623XXSP,2013-01-27 19:28:00,
2013-01-27 13:29:00,66.2,59.5,30.07,SSE,157,7.0,16.0,79,0.00,,,0.00,WUHU21623XXSP,2013-01-27 19:29:00,
2013-01-27 13:31:00,66.0,59.3,30.07,SSE,164,6.0,16.0,79,0.00,,,0.00,WUHU21623XXSP,2013-01-27 19:31:00,
2013-01-27 13:32:00,66.2,59.1,30.06,SSE,157,9.0,16.0,78,0.00,,,0.00,WUHU21623XXSP,2013-01-27 19:32:00,
2013-01-27 13:33:00,66.2,59.1,30.06,SSE,157,9.0,16.0,78,0.00,,,0.00,WUHU21623XXSP,2013-01-27 19:33:00,
2013-01-27 13:35:00,66.4,59.3,30.05,SE,135,12.0,12.0,78,0.00,,,0.00,WUHU21623XXSP,2013-01-27 19:35:00,
2013-01-27 13:36:00,66.4,59.3,30.06,SSE,158,10.0,12.0,78,0.00,,,0.00,WUHU21623XXSP,2013-01-27 19:36:00,
2013-01-27 13:38:00,66.6,59.5,30.05,SSE,165,9.0,14.0,78,0.00,,,0.00,WUHU21623XXSP,2013-01-27 19:38:00,
2013-01-27 13:40:00,66.6,59.5,30.05,SSE,156,10.0,20.0,78,0.00,,,0.00,WUHU21623XXSP,2013-01-27 19:40:00,
2013-01-27 13:41:00,66.7,59.7,30.05,SSE,157,10.0,20.0,78,0.00,,,0.00,WUHU21623XXSP,2013-01-27 19:41:00,
2013-01-27 13:43:00,66.7,59.7,30.05,South,182,9.0,20.0,78,0.00,,,0.00,WUHU21623XXSP,2013-01-27 19:43:00,
2013-01-27 13:45:00,66.7,59.7,30.05,SE,135,10.0,20.0,78,0.00,,,0.00,WUHU21623XXSP,2013-01-27 19:45:00,
2013-01-27 13:46:00,66.7,59.7,30.05,SSE,151,8.0,20.0,78,0.00,,,0.00,WUHU21623XXSP,2013-01-27 19:46:00,
2013-01-27 13:48:00,66.7,59.7,30.05,South,180,12.0,20.0,78,0.00,,,0.00,WUHU21623XXSP,2013-01-27 19:48:00,
2013-01-27 13:50:00,66.9,59.9,30.05,SSE,167,8.0,15.0,78,0.00,,,0.00,WUHU21623XXSP,2013-01-27 19:50:00,
2013-01-27 13:51:00,66.9,59.9,30.05,SE,135,9.0,15.0,78,0.00,,,0.00,WUHU21623XXSP,2013-01-27 19:51:00,
2013-01-27 13:53:00,66.9,59.9,30.05,SE,135,9.0,13.0,78,0.00,,,0.00,WUHU21623XXSP,2013-01-27 19:53:00,
2013-01-27 13:55:00,67.1,60.0,30.05,SSE,157,9.0,13.0,78,0.00,,,0.00,WUHU21623XXSP,2013-01-27 19:55:00,
2013-01-27 13:56:00,67.1,60.0,30.04,SSE,162,7.0,13.0,78,0.00,,,0.00,WUHU21623XXSP,2013-01-27 19:56:00,
2013-01-27 13:58:00,67.3,60.2,30.04,SSE,157,8.0,10.0,78,0.00,,,0.00,WUHU21623XXSP,2013-01-27 19:58:00,
2013-01-27 14:00:00,67.3,60.2,30.04,SE,135,10.0,15.0,78,0.00,,,0.00,WUHU21623XXSP,2013-01-27 20:00:00,
2013-01-27 14:01:00,67.3,59.8,30.04,SSE,157,8.0,15.0,77,0.00,,,0.00,WUHU21623XXSP,2013-01-27 20:01:00,
2013-01-27 14:03:00,67.6,60.2,30.04,SW,225,12.0,15.0,77,0.00,,,0.00,WUHU21623XXSP,2013-01-27 20:03:00,
2013-01-27 14:04:00,67.6,60.2,30.04,SSE,157,15.0,15.0,77,0.00,,,0.00,WUHU21623XXSP,2013-01-27 20:04:00,
2013-01-27 14:05:00,67.6,60.2,30.04,SSE,158,9.0,18.0,77,0.00,,,0.00,WUHU21623XXSP,2013-01-27 20:05:00,
2013-01-27 14:06:00,67.6,60.2,30.04,South,178,6.0,18.0,77,0.00,,,0.00,WUHU21623XXSP,2013-01-27 20:06:00,
2013-01-27 14:08:00,67.8,60.4,30.04,SSE,154,7.0,18.0,77,0.00,,,0.00,WUHU21623XXSP,2013-01-27 20:08:00,
2013-01-27 14:09:00,67.8,60.4,30.04,South,170,6.0,18.0,77,0.00,,,0.00,WUHU21623XXSP,2013-01-27 20:09:00,
2013-01-27 14:10:00,67.8,60.4,30.04,SE,135,10.0,18.0,77,0.00,,,0.00,WUHU21623XXSP,2013-01-27 20:10:00,
2013-01-27 14:11:00,67.8,60.4,30.04,South,180,15.0,18.0,77,0.00,,,0.00,WUHU21623XXSP,2013-01-27 20:11:00,
2013-01-27 14:14:00,68.2,60.7,30.04,SSW,202,9.0,18.0,77,0.00,,,0.00,WUHU21623XXSP,2013-01-27 20:14:00,
2013-01-27 14:15:00,68.2,60.4,30.04,SSE,157,8.0,16.0,76,0.00,,,0.00,WUHU21623XXSP,2013-01-27 20:15:00,
2013-01-27 14:17:00,68.4,60.5,30.04,SSE,159,9.0,16.0,76,0.00,,,0.00,WUHU21623XXSP,2013-01-27 20:17:00,
2013-01-27 14:19:00,68.5,60.7,30.04,SSE,167,9.0,16.0,76,0.00,,,0.00,WUHU21623XXSP,2013-01-27 20:19:00,
2013-01-27 14:21:00,68.5,60.7,30.04,South,180,8.0,16.0,76,0.00,,,0.00,WUHU21623XXSP,2013-01-27 20:21:00,
2013-01-27 14:22:00,68.7,60.8,30.04,South,180,10.0,16.0,76,0.00,,,0.00,WUHU21623XXSP,2013-01-27 20:22:00,
2013-01-27 14:24:00,68.7,60.8,30.03,SSE,157,8.0,16.0,76,0.00,,,0.00,WUHU21623XXSP,2013-01-27 20:24:00,
2013-01-27 14:26:00,68.7,60.8,30.03,South,170,8.0,16.0,76,0.00,,,0.00,WUHU21623XXSP,2013-01-27 20:26:00,
2013-01-27 14:27:00,68.7,60.8,30.03,South,180,11.0,15.0,76,0.00,,,0.00,WUHU21623XXSP,2013-01-27 20:27:00,
2013-01-27 14:29:00,68.9,61.0,30.03,South,180,9.0,15.0,76,0.00,,,0.00,WUHU21623XXSP,2013-01-27 20:29:00,
2013-01-27 14:31:00,69.1,61.2,30.03,South,171,9.0,16.0,76,0.00,,,0.00,WUHU21623XXSP,2013-01-27 20:31:00,
2013-01-27 14:32:00,69.1,60.8,30.03,SSE,157,17.0,21.0,75,0.00,,,0.00,WUHU21623XXSP,2013-01-27 20:32:00,
2013-01-27 14:34:00,69.3,60.9,30.03,SSE,167,13.0,21.0,75,0.00,,,0.00,WUHU21623XXSP,2013-01-27 20:34:00,
2013-01-27 14:35:00,69.3,60.9,30.03,South,175,13.0,21.0,75,0.00,,,0.00,WUHU21623XXSP,2013-01-27 20:35:00,
2013-01-27 14:36:00,69.4,60.7,30.03,South,188,11.0,21.0,74,0.00,,,0.00,WUHU21623XXSP,2013-01-27 20:36:00,
2013-01-27 14:37:00,69.6,60.9,30.03,South,169,10.0,21.0,74,0.00,,,0.00,WUHU21623XXSP,2013-01-27 20:37:00,
2013-01-27 14:40:00,69.6,60.9,30.02,SSE,157,10.0,21.0,74,0.00,,,0.00,WUHU21623XXSP,2013-01-27 20:40:00,
2013-01-27 14:41:00,69.6,60.9,30.03,SSE,168,9.0,21.0,74,0.00,,,0.00,WUHU21623XXSP,2013-01-27 20:41:00,
2013-01-27 14:43:00,69.6,60.9,30.02,WSW,247,11.0,21.0,74,0.00,,,0.00,WUHU21623XXSP,2013-01-27 20:43:00,
2013-01-27 14:45:00,70.0,61.2,30.02,SSE,168,8.0,16.0,74,0.00,,,0.00,WUHU21623XXSP,2013-01-27 20:45:00,
2013-01-27 14:46:00,70.0,60.9,30.02,SSE,157,10.0,16.0,73,0.00,,,0.00,WUHU21623XXSP,2013-01-27 20:46:00,
2013-01-27 14:48:00,70.0,60.9,30.02,South,169,7.0,16.0,73,0.00,,,0.00,WUHU21623XXSP,2013-01-27 20:48:00,
2013-01-27 14:50:00,70.2,61.0,30.02,South,181,10.0,16.0,73,0.00,,,0.00,WUHU21623XXSP,2013-01-27 20:50:00,
2013-01-27 14:51:00,70.2,61.0,30.02,South,180,11.0,16.0,73,0.00,,,0.00,WUHU21623XXSP,2013-01-27 20:51:00,
2013-01-27 14:53:00,70.3,61.2,30.02,South,180,13.0,16.0,73,0.00,,,0.00,WUHU21623XXSP,2013-01-27 20:53:00,
2013-01-27 14:55:00,70.3,61.2,30.02,SSE,157,10.0,16.0,73,0.00,,,0.00,WUHU21623XXSP,2013-01-27 20:55:00,
2013-01-27 14:56:00,70.3,60.8,30.02,SSW,202,11.0,16.0,72,0.00,,,0.00,WUHU21623XXSP,2013-01-27 20:56:00,
2013-01-27 14:58:00,70.5,61.0,30.02,SSW,202,10.0,16.0,72,0.00,,,0.00,WUHU21623XXSP,2013-01-27 20:58:00,
2013-01-27 15:00:00,70.5,60.6,30.02,South,180,11.0,16.0,71,0.00,,,0.00,WUHU21623XXSP,2013-01-27 21:00:00,
2013-01-27 15:01:00,70.5,60.6,30.02,South,181,10.0,16.0,71,0.00,,,0.00,WUHU21623XXSP,2013-01-27 21:01:00,
2013-01-27 15:03:00,70.5,60.6,30.02,SSE,161,10.0,16.0,71,0.00,,,0.00,WUHU21623XXSP,2013-01-27 21:03:00,
2013-01-27 15:05:00,70.5,60.8,30.02,South,180,10.0,16.0,71,0.00,,,0.00,WUHU21623XXSP,2013-01-27 21:05:00,
2013-01-27 15:06:00,70.5,60.6,30.02,South,180,10.0,16.0,71,0.00,,,0.00,WUHU21623XXSP,2013-01-27 21:06:00,
2013-01-27 15:08:00,70.7,60.8,30.02,SSE,157,13.0,16.0,71,0.00,,,0.00,WUHU21623XXSP,2013-01-27 21:08:00,
2013-01-27 15:11:00,70.9,61.0,30.02,SSW,194,8.0,16.0,71,0.00,,,0.00,WUHU21623XXSP,2013-01-27 21:11:00,
2013-01-27 15:13:00,70.9,61.0,30.02,South,178,8.0,16.0,71,0.00,,,0.00,WUHU21623XXSP,2013-01-27 21:13:00,
2013-01-27 15:16:00,70.9,60.6,30.02,SSE,157,10.0,16.0,70,0.00,,,0.00,WUHU21623XXSP,2013-01-27 21:16:00,
2013-01-27 15:18:00,70.9,60.6,30.02,South,173,10.0,17.0,70,0.00,,,0.00,WUHU21623XXSP,2013-01-27 21:18:00,
2013-01-27 15:21:00,70.9,60.6,30.02,ESE,112,9.0,17.0,70,0.00,,,0.00,WUHU21623XXSP,2013-01-27 21:21:00,
2013-01-27 15:23:00,70.9,60.2,30.02,South,191,8.0,17.0,69,0.00,,,0.00,WUHU21623XXSP,2013-01-27 21:23:00,
2013-01-27 15:26:00,70.9,60.2,30.02,SE,135,10.0,17.0,69,0.00,,,0.00,WUHU21623XXSP,2013-01-27 21:26:00,
2013-01-27 15:29:00,71.2,60.5,30.01,SSE,161,12.0,21.0,69,0.00,,,0.00,WUHU21623XXSP,2013-01-27 21:29:00,
2013-01-27 15:31:00,71.2,60.7,30.01,South,170,10.0,21.0,69,0.00,,,0.00,WUHU21623XXSP,2013-01-27 21:31:00,
2013-01-27 15:32:00,71.2,60.5,30.01,SSW,202,13.0,21.0,69,0.00,,,0.00,WUHU21623XXSP,2013-01-27 21:32:00,
2013-01-27 15:34:00,71.2,60.5,30.01,SSE,157,20.0,21.0,69,0.00,,,0.00,WUHU21623XXSP,2013-01-27 21:34:00,
2013-01-27 15:36:00,71.4,60.3,30.01,SSE,157,13.0,21.0,68,0.00,,,0.00,WUHU21623XXSP,2013-01-27 21:36:00,
2013-01-27 15:37:00,71.4,60.3,30.01,SE,135,16.0,21.0,68,0.00,,,0.00,WUHU21623XXSP,2013-01-27 21:37:00,
2013-01-27 15:40:00,71.4,60.3,30.01,SSW,202,10.0,20.0,68,0.00,,,0.00,WUHU21623XXSP,2013-01-27 21:40:00,
2013-01-27 15:41:00,71.4,60.3,30.01,SSE,157,12.0,20.0,68,0.00,,,0.00,WUHU21623XXSP,2013-01-27 21:41:00,
2013-01-27 15:42:00,71.6,60.5,30.01,South,180,16.0,20.0,68,0.00,,,0.00,WUHU21623XXSP,2013-01-27 21:42:00,
2013-01-27 15:45:00,71.6,60.5,30.01,SSW,196,11.0,17.0,68,0.00,,,0.00,WUHU21623XXSP,2013-01-27 21:45:00,
2013-01-27 15:46:00,71.8,60.6,30.01,South,171,8.0,16.0,68,0.00,,,0.00,WUHU21623XXSP,2013-01-27 21:46:00,
2013-01-27 15:47:00,71.8,60.6,30.01,SSE,157,12.0,17.0,68,0.00,,,0.00,WUHU21623XXSP,2013-01-27 21:47:00,
2013-01-27 15:50:00,71.8,60.6,30.01,SSE,162,9.0,17.0,68,0.00,,,0.00,WUHU21623XXSP,2013-01-27 21:50:00,
2013-01-27 15:51:00,71.8,60.6,30.01,South,175,9.0,20.0,68,0.00,,,0.00,WUHU21623XXSP,2013-01-27 21:51:00,
2013-01-27 15:52:00,71.8,60.6,30.01,South,180,13.0,20.0,68,0.00,,,0.00,WUHU21623XXSP,2013-01-27 21:52:00,
2013-01-27 15:55:00,72.0,61.1,30.00,South,169,8.0,20.0,68,0.00,,,0.00,WUHU21623XXSP,2013-01-27 21:55:00,
2013-01-27 15:56:00,72.0,60.4,30.01,SSE,161,9.0,23.0,67,0.00,,,0.00,WUHU21623XXSP,2013-01-27 21:56:00,
2013-01-27 15:57:00,72.0,60.4,30.01,SSE,157,10.0,23.0,67,0.00,,,0.00,WUHU21623XXSP,2013-01-27 21:57:00,
2013-01-27 16:00:00,72.0,60.4,30.01,South,178,10.0,23.0,67,0.00,,,0.00,WUHU21623XXSP,2013-01-27 22:00:00,
2013-01-27 16:02:00,72.0,60.4,30.01,SSE,167,10.0,23.0,67,0.00,,,0.00,WUHU21623XXSP,2013-01-27 22:02:00,
2013-01-27 16:05:00,72.0,60.4,30.01,SSE,166,9.0,23.0,67,0.00,,,0.00,WUHU21623XXSP,2013-01-27 22:05:00,
2013-01-27 16:07:00,72.0,60.4,30.00,ESE,112,9.0,22.0,67,0.00,,,0.00,WUHU21623XXSP,2013-01-27 22:07:00,
2013-01-27 16:08:00,72.0,60.4,30.01,SSE,157,10.0,17.0,67,0.00,,,0.00,WUHU21623XXSP,2013-01-27 22:08:00,
2013-01-27 16:10:00,72.0,60.4,30.01,South,180,15.0,18.0,67,0.00,,,0.00,WUHU21623XXSP,2013-01-27 22:10:00,
2013-01-27 16:12:00,72.0,60.4,30.00,SSE,157,12.0,18.0,67,0.00,,,0.00,WUHU21623XXSP,2013-01-27 22:12:00,
2013-01-27 16:13:00,72.0,60.4,30.01,South,180,9.0,18.0,67,0.00,,,0.00,WUHU21623XXSP,2013-01-27 22:13:00,
2013-01-27 16:15:00,72.0,60.4,30.00,South,177,10.0,18.0,67,0.00,,,0.00,WUHU21623XXSP,2013-01-27 22:15:00,
2013-01-27 16:17:00,72.0,60.4,30.00,South,172,9.0,18.0,67,0.00,,,0.00,WUHU21623XXSP,2013-01-27 22:17:00,
2013-01-27 16:19:00,72.0,60.4,30.00,South,170,8.0,15.0,67,0.00,,,0.00,WUHU21623XXSP,2013-01-27 22:19:00,
2013-01-27 16:20:00,72.0,60.4,30.00,SE,135,6.0,15.0,67,0.00,,,0.00,WUHU21623XXSP,2013-01-27 22:20:00,
2013-01-27 16:22:00,71.8,59.8,30.00,South,172,7.0,15.0,66,0.00,,,0.00,WUHU21623XXSP,2013-01-27 22:22:00,
2013-01-27 16:23:00,72.0,60.4,30.00,South,180,9.0,16.0,67,0.00,,,0.00,WUHU21623XXSP,2013-01-27 22:23:00,
2013-01-27 16:24:00,72.0,60.4,30.00,South,178,8.0,16.0,67,0.00,,,0.00,WUHU21623XXSP,2013-01-27 22:24:00,
2013-01-27 16:25:00,72.0,60.4,30.01,South,175,6.0,16.0,67,0.00,,,0.00,WUHU21623XXSP,2013-01-27 22:25:00,
2013-01-27 16:27:00,72.0,60.4,30.01,SSE,163,9.0,16.0,67,0.00,,,0.00,WUHU21623XXSP,2013-01-27 22:27:00,
2013-01-27 16:28:00,72.0,60.4,30.00,SSE,163,8.0,16.0,67,0.00,,,0.00,WUHU21623XXSP,2013-01-27 22:28:00,
2013-01-27 16:29:00,72.0,60.4,30.00,South,172,7.0,16.0,67,0.00,,,0.00,WUHU21623XXSP,2013-01-27 22:29:00,
2013-01-27 16:30:00,72.0,60.4,30.01,South,184,5.0,16.0,67,0.00,,,0.00,WUHU21623XXSP,2013-01-27 22:30:00,
2013-01-27 16:32:00,72.0,60.4,30.00,South,170,9.0,14.0,67,0.00,,,0.00,WUHU21623XXSP,2013-01-27 22:32:00,
2013-01-27 16:33:00,72.0,60.4,30.00,ESE,112,13.0,14.0,67,0.00,,,0.00,WUHU21623XXSP,2013-01-27 22:33:00,
2013-01-27 16:34:00,72.0,60.4,30.00,SSE,157,10.0,14.0,67,0.00,,,0.00,WUHU21623XXSP,2013-01-27 22:34:00,
2013-01-27 16:35:00,72.0,60.4,30.00,South,175,6.0,14.0,67,0.00,,,0.00,WUHU21623XXSP,2013-01-27 22:35:00,
2013-01-27 16:37:00,72.0,60.4,30.01,SSE,155,7.0,14.0,67,0.00,,,0.00,WUHU21623XXSP,2013-01-27 22:37:00,
2013-01-27 16:38:00,72.0,60.4,30.00,SSE,157,9.0,14.0,67,0.00,,,0.00,WUHU21623XXSP,2013-01-27 22:38:00,
2013-01-27 16:40:00,72.0,60.0,30.00,South,175,7.0,13.0,66,0.00,,,0.00,WUHU21623XXSP,2013-01-27 22:40:00,
2013-01-27 16:43:00,72.0,60.0,30.01,SSE,157,10.0,13.0,66,0.00,,,0.00,WUHU21623XXSP,2013-01-27 22:43:00,
2013-01-27 16:45:00,72.0,60.0,30.01,SSE,157,12.0,12.0,66,0.00,,,0.00,WUHU21623XXSP,2013-01-27 22:45:00,
2013-01-27 16:48:00,72.0,60.0,30.00,SSW,202,9.0,12.0,66,0.00,,,0.00,WUHU21623XXSP,2013-01-27 22:48:00,
2013-01-27 16:50:00,72.1,60.1,30.00,South,181,9.0,18.0,66,0.00,,,0.00,WUHU21623XXSP,2013-01-27 22:50:00,
2013-01-27 16:51:00,72.1,59.7,30.00,SSE,157,13.0,18.0,65,0.00,,,0.00,WUHU21623XXSP,2013-01-27 22:51:00,
2013-01-27 16:53:00,72.1,59.7,30.00,SSW,202,9.0,18.0,65,0.00,,,0.00,WUHU21623XXSP,2013-01-27 22:53:00,
2013-01-27 16:54:00,72.1,59.7,30.01,South,180,6.0,18.0,65,0.00,,,0.00,WUHU21623XXSP,2013-01-27 22:54:00,
2013-01-27 16:55:00,72.1,59.7,30.00,SSW,202,9.0,18.0,65,0.00,,,0.00,WUHU21623XXSP,2013-01-27 22:55:00,
2013-01-27 16:56:00,72.1,59.7,30.01,SSW,195,7.0,18.0,65,0.00,,,0.00,WUHU21623XXSP,2013-01-27 22:56:00,
2013-01-27 16:58:00,72.3,59.9,30.01,SSE,157,7.0,18.0,65,0.00,,,0.00,WUHU21623XXSP,2013-01-27 22:58:00,
2013-01-27 16:59:00,72.3,59.9,30.01,South,180,6.0,18.0,65,0.00,,,0.00,WUHU21623XXSP,2013-01-27 22:59:00,
2013-01-27 17:00:00,72.3,59.9,30.01,South,180,12.0,16.0,65,0.00,,,0.00,WUHU21623XXSP,2013-01-27 23:00:00,
2013-01-27 17:01:00,72.3,59.9,30.01,SSE,157,10.0,16.0,65,0.00,,,0.00,WUHU21623XXSP,2013-01-27 23:01:00,
2013-01-27 17:04:00,72.3,59.9,30.01,South,180,4.0,12.0,65,0.00,,,0.00,WUHU21623XXSP,2013-01-27 23:04:00,
2013-01-27 17:05:00,72.3,59.9,30.01,SW,225,7.0,12.0,65,0.00,,,0.00,WUHU21623XXSP,2013-01-27 23:05:00,
2013-01-27 17:06:00,72.3,59.9,30.01,South,180,7.0,12.0,65,0.00,,,0.00,WUHU21623XXSP,2013-01-27 23:06:00,
2013-01-27 17:09:00,72.3,59.9,30.01,South,180,9.0,12.0,65,0.00,,,0.00,WUHU21623XXSP,2013-01-27 23:09:00,
2013-01-27 17:10:00,72.3,59.9,30.01,South,169,7.0,13.0,65,0.00,,,0.00,WUHU21623XXSP,2013-01-27 23:10:00,
2013-01-27 17:11:00,72.3,59.9,30.01,ESE,112,5.0,13.0,65,0.00,,,0.00,WUHU21623XXSP,2013-01-27 23:11:00,
2013-01-27 17:14:00,72.3,59.9,30.02,SSE,157,12.0,13.0,65,0.00,,,0.00,WUHU21623XXSP,2013-01-27 23:14:00,
2013-01-27 17:15:00,72.3,59.9,30.01,SSE,157,22.0,22.0,65,0.00,,,0.00,WUHU21623XXSP,2013-01-27 23:15:00,
2013-01-27 17:16:00,72.3,59.9,30.01,SSE,157,10.0,22.0,65,0.00,,,0.00,WUHU21623XXSP,2013-01-27 23:16:00,
2013-01-27 17:19:00,72.3,59.9,30.01,SW,225,9.0,22.0,65,0.00,,,0.00,WUHU21623XXSP,2013-01-27 23:19:00,
2013-01-27 17:20:00,72.3,59.9,30.01,SSW,202,8.0,22.0,65,0.00,,,0.00,WUHU21623XXSP,2013-01-27 23:20:00,
2013-01-27 17:21:00,72.3,59.4,30.01,South,183,8.0,22.0,64,0.00,,,0.00,WUHU21623XXSP,2013-01-27 23:21:00,
2013-01-27 17:24:00,72.3,59.4,30.01,SSE,165,7.0,22.0,64,0.00,,,0.00,WUHU21623XXSP,2013-01-27 23:24:00,
2013-01-27 17:25:00,72.3,59.4,30.01,SSW,202,10.0,13.0,64,0.00,,,0.00,WUHU21623XXSP,2013-01-27 23:25:00,
2013-01-27 17:27:00,72.3,59.4,30.01,ESE,112,10.0,13.0,64,0.00,,,0.00,WUHU21623XXSP,2013-01-27 23:27:00,
2013-01-27 17:29:00,72.3,59.4,30.01,South,184,8.0,12.0,64,0.00,,,0.00,WUHU21623XXSP,2013-01-27 23:29:00,
2013-01-27 17:30:00,72.3,59.4,30.01,SSE,157,12.0,12.0,64,0.00,,,0.00,WUHU21623XXSP,2013-01-27 23:30:00,
2013-01-27 17:31:00,72.3,59.4,30.01,South,173,10.0,21.0,64,0.00,,,0.00,WUHU21623XXSP,2013-01-27 23:31:00,
2013-01-27 17:32:00,72.3,59.4,30.01,South,170,11.0,21.0,64,0.00,,,0.00,WUHU21623XXSP,2013-01-27 23:32:00,
2013-01-27 17:34:00,72.3,59.4,30.01,SSE,161,10.0,21.0,64,0.00,,,0.00,WUHU21623XXSP,2013-01-27 23:34:00,
2013-01-27 17:35:00,72.3,59.4,30.01,SSE,167,8.0,21.0,64,0.00,,,0.00,WUHU21623XXSP,2013-01-27 23:35:00,
2013-01-27 17:36:00,72.1,59.3,30.01,South,180,10.0,21.0,64,0.00,,,0.00,WUHU21623XXSP,2013-01-27 23:36:00,
2013-01-27 17:37:00,72.3,59.4,30.01,SSW,202,10.0,21.0,64,0.00,,,0.00,WUHU21623XXSP,2013-01-27 23:37:00,
2013-01-27 17:39:00,72.1,59.3,30.01,SSE,168,7.0,21.0,64,0.00,,,0.00,WUHU21623XXSP,2013-01-27 23:39:00,
2013-01-27 17:40:00,72.1,59.3,30.01,SSE,157,10.0,16.0,64,0.00,,,0.00,WUHU21623XXSP,2013-01-27 23:40:00,
2013-01-27 17:41:00,72.1,59.3,30.01,SSE,157,10.0,16.0,64,0.00,,,0.00,WUHU21623XXSP,2013-01-27 23:41:00,
2013-01-27 17:42:00,72.1,59.3,30.01,South,180,10.0,16.0,64,0.00,,,0.00,WUHU21623XXSP,2013-01-27 23:42:00,
2013-01-27 17:44:00,72.1,59.3,30.01,SSE,157,7.0,12.0,64,0.00,,,0.00,WUHU21623XXSP,2013-01-27 23:44:00,
2013-01-27 17:45:00,72.1,59.3,30.01,South,178,6.0,12.0,64,0.00,,,0.00,WUHU21623XXSP,2013-01-27 23:45:00,
2013-01-27 17:46:00,72.1,59.3,30.02,South,170,6.0,12.0,64,0.00,,,0.00,WUHU21623XXSP,2013-01-27 23:46:00,
2013-01-27 17:47:00,72.1,59.3,30.01,SSE,156,6.0,12.0,64,0.00,,,0.00,WUHU21623XXSP,2013-01-27 23:47:00,
2013-01-27 17:50:00,72.1,59.3,30.02,South,180,13.0,13.0,64,0.00,,,0.00,WUHU21623XXSP,2013-01-27 23:50:00,
2013-01-27 17:51:00,72.0,59.1,30.02,South,182,6.0,13.0,64,0.00,,,0.00,WUHU21623XXSP,2013-01-27 23:51:00,
2013-01-27 17:52:00,72.0,59.1,30.02,South,184,5.0,13.0,64,0.00,,,0.00,WUHU21623XXSP,2013-01-27 23:52:00,
2013-01-27 17:55:00,72.0,59.1,30.02,SSE,165,5.0,13.0,64,0.00,,,0.00,WUHU21623XXSP,2013-01-27 23:55:00,
2013-01-27 17:56:00,72.0,59.1,30.01,SSE,165,4.0,13.0,64,0.00,,,0.00,WUHU21623XXSP,2013-01-27 23:56:00,
2013-01-27 17:57:00,71.8,58.9,30.02,South,180,4.0,13.0,64,0.00,,,0.00,WUHU21623XXSP,2013-01-27 23:57:00,
2013-01-27 18:00:00,71.8,59.3,30.02,SSE,165,6.0,11.0,65,0.00,,,0.00,WUHU21623XXSP,2013-01-28 00:00:00,
2013-01-27 18:01:00,71.8,59.3,30.02,SSE,165,7.0,10.0,65,0.00,,,0.00,WUHU21623XXSP,2013-01-28 00:01:00,
2013-01-27 18:02:00,71.8,59.3,30.02,SSE,164,5.0,10.0,65,0.00,,,0.00,WUHU21623XXSP,2013-01-28 00:02:00,
2013-01-27 18:05:00,71.8,59.3,30.02,South,171,8.0,13.0,65,0.00,,,0.00,WUHU21623XXSP,2013-01-28 00:05:00,
2013-01-27 18:06:00,71.8,59.3,30.02,SSE,163,7.0,13.0,65,0.00,,,0.00,WUHU21623XXSP,2013-01-28 00:06:00,
2013-01-27 18:07:00,71.8,59.3,30.02,SE,135,6.0,13.0,65,0.00,,,0.00,WUHU21623XXSP,2013-01-28 00:07:00,
2013-01-27 18:08:00,71.6,59.2,30.02,SE,145,5.0,13.0,65,0.00,,,0.00,WUHU21623XXSP,2013-01-28 00:08:00,
2013-01-27 18:10:00,71.4,59.0,30.02,SSE,160,7.0,13.0,65,0.00,,,0.00,WUHU21623XXSP,2013-01-28 00:10:00,
2013-01-27 18:11:00,71.4,59.0,30.02,SSE,157,6.0,13.0,65,0.00,,,0.00,WUHU21623XXSP,2013-01-28 00:11:00,
2013-01-27 18:12:00,71.4,59.0,30.02,SSE,152,5.0,13.0,65,0.00,,,0.00,WUHU21623XXSP,2013-01-28 00:12:00,
2013-01-27 18:13:00,71.4,59.0,30.01,SSE,158,5.0,13.0,65,0.00,,,0.00,WUHU21623XXSP,2013-01-28 00:13:00,
2013-01-27 18:15:00,71.4,59.0,30.02,SSE,150,5.0,11.0,65,0.00,,,0.00,WUHU21623XXSP,2013-01-28 00:15:00,
2013-01-27 18:16:00,71.4,59.0,30.02,South,180,7.0,11.0,65,0.00,,,0.00,WUHU21623XXSP,2013-01-28 00:16:00,
2013-01-27 18:17:00,71.4,59.0,30.01,South,178,5.0,11.0,65,0.00,,,0.00,WUHU21623XXSP,2013-01-28 00:17:00,
2013-01-27 18:18:00,71.4,59.0,30.01,SSW,202,6.0,11.0,65,0.00,,,0.00,WUHU21623XXSP,2013-01-28 00:18:00,
2013-01-27 18:21:00,71.4,59.0,30.02,SSE,150,3.0,11.0,65,0.00,,,0.00,WUHU21623XXSP,2013-01-28 00:21:00,
2013-01-27 18:22:00,71.4,59.0,30.01,SSE,160,5.0,11.0,65,0.00,,,0.00,WUHU21623XXSP,2013-01-28 00:22:00,
2013-01-27 18:23:00,71.2,58.8,30.01,SE,135,7.0,11.0,65,0.00,,,0.00,WUHU21623XXSP,2013-01-28 00:23:00,
2013-01-27 18:26:00,71.2,58.8,30.01,SSE,157,4.0,10.0,65,0.00,,,0.00,WUHU21623XXSP,2013-01-28 00:26:00,
2013-01-27 18:27:00,71.2,58.8,30.01,SE,135,6.0,10.0,65,0.00,,,0.00,WUHU21623XXSP,2013-01-28 00:27:00,
2013-01-27 18:28:00,71.2,58.8,30.01,SSE,156,5.0,10.0,65,0.00,,,0.00,WUHU21623XXSP,2013-01-28 00:28:00,
2013-01-27 18:31:00,71.2,58.8,30.01,SSE,149,7.0,11.0,65,0.00,,,0.00,WUHU21623XXSP,2013-01-28 00:31:00,
2013-01-27 18:32:00,71.2,58.8,30.01,South,171,5.0,11.0,65,0.00,,,0.00,WUHU21623XXSP,2013-01-28 00:32:00,
2013-01-27 18:33:00,71.2,58.8,30.01,SSE,157,4.0,11.0,65,0.00,,,0.00,WUHU21623XXSP,2013-01-28 00:33:00,
2013-01-27 18:36:00,71.2,58.8,30.01,SSE,168,5.0,11.0,65,0.00,,,0.00,WUHU21623XXSP,2013-01-28 00:36:00,
2013-01-27 18:37:00,71.2,58.8,30.02,SSE,157,8.0,11.0,65,0.00,,,0.00,WUHU21623XXSP,2013-01-28 00:37:00,
2013-01-27 18:38:00,71.1,58.7,30.02,South,171,5.0,11.0,65,0.00,,,0.00,WUHU21623XXSP,2013-01-28 00:38:00,
2013-01-27 18:41:00,70.9,58.9,30.02,SSE,157,4.0,8.0,66,0.00,,,0.00,WUHU21623XXSP,2013-01-28 00:41:00,
2013-01-27 18:42:00,70.9,58.9,30.02,SSE,158,4.0,8.0,66,0.00,,,0.00,WUHU21623XXSP,2013-01-28 00:42:00,
2013-01-27 18:43:00,70.9,58.9,30.02,SSE,157,5.0,8.0,66,0.00,,,0.00,WUHU21623XXSP,2013-01-28 00:43:00,
2013-01-27 18:46:00,70.9,58.9,30.02,South,180,1.0,8.0,66,0.00,,,0.00,WUHU21623XXSP,2013-01-28 00:46:00,
2013-01-27 18:47:00,70.9,58.9,30.02,SSW,202,2.0,7.0,66,0.00,,,0.00,WUHU21623XXSP,2013-01-28 00:47:00,
2013-01-27 18:48:00,70.9,58.9,30.02,SSE,157,7.0,7.0,66,0.00,,,0.00,WUHU21623XXSP,2013-01-28 00:48:00,
2013-01-27 18:51:00,70.9,58.9,30.02,SSE,157,6.0,8.0,66,0.00,,,0.00,WUHU21623XXSP,2013-01-28 00:51:00,
2013-01-27 18:52:00,70.9,58.9,30.02,SSE,157,6.0,8.0,66,0.00,,,0.00,WUHU21623XXSP,2013-01-28 00:52:00,
2013-01-27 18:53:00,70.9,58.9,30.02,South,177,4.0,8.0,66,0.00,,,0.00,WUHU21623XXSP,2013-01-28 00:53:00,
2013-01-27 18:56:00,70.7,58.7,30.02,SSE,163,4.0,9.0,66,0.00,,,0.00,WUHU21623XXSP,2013-01-28 00:56:00,
2013-01-27 18:57:00,70.7,58.7,30.02,SSE,157,5.0,9.0,66,0.00,,,0.00,WUHU21623XXSP,2013-01-28 00:57:00,
2013-01-27 18:58:00,70.7,58.7,30.02,SSE,159,3.0,9.0,66,0.00,,,0.00,WUHU21623XXSP,2013-01-28 00:58:00,
2013-01-27 19:02:00,70.7,58.7,30.02,South,169,4.0,9.0,66,0.00,,,0.00,WUHU21623XXSP,2013-01-28 01:02:00,
2013-01-27 19:03:00,70.5,58.6,30.02,SSW,202,5.0,9.0,66,0.00,,,0.00,WUHU21623XXSP,2013-01-28 01:03:00,
2013-01-27 19:04:00,70.7,58.7,30.03,South,170,5.0,9.0,66,0.00,,,0.00,WUHU21623XXSP,2013-01-28 01:04:00,
2013-01-27 19:07:00,70.5,58.6,30.03,SSW,202,4.0,9.0,66,0.00,,,0.00,WUHU21623XXSP,2013-01-28 01:07:00,
2013-01-27 19:08:00,70.5,58.6,30.03,South,191,4.0,9.0,66,0.00,,,0.00,WUHU21623XXSP,2013-01-28 01:08:00,
2013-01-27 19:09:00,70.5,58.6,30.03,South,184,4.0,8.0,66,0.00,,,0.00,WUHU21623XXSP,2013-01-28 01:09:00,
2013-01-27 19:12:00,70.5,59.0,30.03,SSE,163,5.0,9.0,67,0.00,,,0.00,WUHU21623XXSP,2013-01-28 01:12:00,
2013-01-27 19:13:00,70.5,59.0,30.03,SSE,165,4.0,9.0,67,0.00,,,0.00,WUHU21623XXSP,2013-01-28 01:13:00,
2013-01-27 19:14:00,70.5,59.0,30.02,South,180,5.0,9.0,67,0.00,,,0.00,WUHU21623XXSP,2013-01-28 01:14:00,
2013-01-27 19:17:00,70.5,59.0,30.02,SSE,159,4.0,10.0,67,0.00,,,0.00,WUHU21623XXSP,2013-01-28 01:17:00,
2013-01-27 19:18:00,70.5,59.0,30.02,South,180,6.0,10.0,67,0.00,,,0.00,WUHU21623XXSP,2013-01-28 01:18:00,
2013-01-27 19:19:00,70.5,59.0,30.02,South,172,5.0,10.0,67,0.00,,,0.00,WUHU21623XXSP,2013-01-28 01:19:00,
2013-01-27 19:23:00,70.5,59.0,30.03,SSE,166,5.0,10.0,67,0.00,,,0.00,WUHU21623XXSP,2013-01-28 01:23:00,
2013-01-27 19:24:00,70.5,59.0,30.03,SSE,157,5.0,10.0,67,0.00,,,0.00,WUHU21623XXSP,2013-01-28 01:24:00,
2013-01-27 19:28:00,70.5,59.0,30.03,South,180,9.0,10.0,67,0.00,,,0.00,WUHU21623XXSP,2013-01-28 01:28:00,
2013-01-27 19:29:00,70.5,59.0,30.02,SSE,163,6.0,10.0,67,0.00,,,0.00,WUHU21623XXSP,2013-01-28 01:29:00,
2013-01-27 19:33:00,70.5,59.0,30.03,SSE,163,7.0,13.0,67,0.00,,,0.00,WUHU21623XXSP,2013-01-28 01:33:00,
2013-01-27 19:34:00,70.5,59.0,30.03,SSE,159,5.0,13.0,67,0.00,,,0.00,WUHU21623XXSP,2013-01-28 01:34:00,
2013-01-27 19:35:00,70.5,59.0,30.03,SSE,156,5.0,13.0,67,0.00,,,0.00,WUHU21623XXSP,2013-01-28 01:35:00,
2013-01-27 19:38:00,70.5,59.0,30.03,SSE,153,6.0,13.0,67,0.00,,,0.00,WUHU21623XXSP,2013-01-28 01:38:00,
2013-01-27 19:39:00,70.5,59.0,30.03,SSE,158,6.0,13.0,67,0.00,,,0.00,WUHU21623XXSP,2013-01-28 01:39:00,
2013-01-27 19:40:00,70.5,59.0,30.03,SSE,153,6.0,13.0,67,0.00,,,0.00,WUHU21623XXSP,2013-01-28 01:40:00,
2013-01-27 19:43:00,70.5,59.0,30.03,SE,135,7.0,9.0,67,0.00,,,0.00,WUHU21623XXSP,2013-01-28 01:43:00,
2013-01-27 19:44:00,70.5,59.0,30.03,SSE,154,4.0,9.0,67,0.00,,,0.00,WUHU21623XXSP,2013-01-28 01:44:00,
2013-01-27 19:45:00,70.5,59.0,30.03,SSE,157,6.0,9.0,67,0.00,,,0.00,WUHU21623XXSP,2013-01-28 01:45:00,
2013-01-27 19:49:00,70.5,59.0,30.03,SE,135,6.0,10.0,67,0.00,,,0.00,WUHU21623XXSP,2013-01-28 01:49:00,
2013-01-27 19:50:00,70.5,59.0,30.03,SSE,157,11.0,11.0,67,0.00,,,0.00,WUHU21623XXSP,2013-01-28 01:50:00,
2013-01-27 19:54:00,70.5,59.0,30.03,SE,135,6.0,11.0,67,0.00,,,0.00,WUHU21623XXSP,2013-01-28 01:54:00,
2013-01-27 19:55:00,70.5,59.0,30.03,SSE,157,7.0,11.0,67,0.00,,,0.00,WUHU21623XXSP,2013-01-28 01:55:00,
2013-01-27 19:59:00,70.5,59.0,30.04,SSE,165,5.0,11.0,67,0.00,,,0.00,WUHU21623XXSP,2013-01-28 01:59:00,
2013-01-27 20:00:00,70.5,59.0,30.04,SSE,163,4.0,11.0,67,0.00,,,0.00,WUHU21623XXSP,2013-01-28 02:00:00,
2013-01-27 20:04:00,70.5,59.0,30.03,SE,146,6.0,9.0,67,0.00,,,0.00,WUHU21623XXSP,2013-01-28 02:04:00,
2013-01-27 20:05:00,70.3,58.8,30.03,SSE,157,5.0,9.0,67,0.00,,,0.00,WUHU21623XXSP,2013-01-28 02:05:00,
2013-01-27 20:09:00,70.5,59.0,30.03,SSE,157,5.0,9.0,67,0.00,,,0.00,WUHU21623XXSP,2013-01-28 02:09:00,
2013-01-27 20:10:00,70.5,59.0,30.03,SSE,149,4.0,9.0,67,0.00,,,0.00,WUHU21623XXSP,2013-01-28 02:10:00,
2013-01-27 20:14:00,70.5,59.0,30.03,South,169,4.0,9.0,67,0.00,,,0.00,WUHU21623XXSP,2013-01-28 02:14:00,
2013-01-27 20:15:00,70.3,58.8,30.03,South,173,3.0,9.0,67,0.00,,,0.00,WUHU21623XXSP,2013-01-28 02:15:00,
2013-01-27 20:19:00,70.3,58.8,30.03,SSE,161,3.0,9.0,67,0.00,,,0.00,WUHU21623XXSP,2013-01-28 02:19:00,
2013-01-27 20:20:00,70.3,58.8,30.04,SSE,160,3.0,7.0,67,0.00,,,0.00,WUHU21623XXSP,2013-01-28 02:20:00,
2013-01-27 20:24:00,70.3,58.8,30.03,South,180,8.0,9.0,67,0.00,,,0.00,WUHU21623XXSP,2013-01-28 02:24:00,
2013-01-27 20:25:00,70.3,58.8,30.03,SSE,159,5.0,9.0,67,0.00,,,0.00,WUHU21623XXSP,2013-01-28 02:25:00,
2013-01-27 20:29:00,70.3,58.8,30.03,SSE,166,4.0,9.0,67,0.00,,,0.00,WUHU21623XXSP,2013-01-28 02:29:00,
2013-01-27 20:30:00,70.3,58.8,30.03,SSE,157,5.0,9.0,67,0.00,,,0.00,WUHU21623XXSP,2013-01-28 02:30:00,
2013-01-27 20:31:00,70.3,58.8,30.03,SSE,157,6.0,9.0,67,0.00,,,0.00,WUHU21623XXSP,2013-01-28 02:31:00,
2013-01-27 20:34:00,70.3,58.8,30.03,South,180,7.0,10.0,67,0.00,,,0.00,WUHU21623XXSP,2013-01-28 02:34:00,
2013-01-27 20:35:00,70.3,58.8,30.03,SE,135,11.0,11.0,67,0.00,,,0.00,WUHU21623XXSP,2013-01-28 02:35:00,
2013-01-27 20:36:00,70.3,58.8,30.03,SSE,160,7.0,12.0,67,0.00,,,0.00,WUHU21623XXSP,2013-01-28 02:36:00,
2013-01-27 20:40:00,70.3,58.8,30.03,SSE,162,5.0,12.0,67,0.00,,,0.00,WUHU21623XXSP,2013-01-28 02:40:00,
2013-01-27 20:41:00,70.3,58.8,30.04,South,180,8.0,12.0,67,0.00,,,0.00,WUHU21623XXSP,2013-01-28 02:41:00,
2013-01-27 20:45:00,70.3,58.8,30.03,SSE,157,7.0,12.0,67,0.00,,,0.00,WUHU21623XXSP,2013-01-28 02:45:00,
2013-01-27 20:46:00,70.3,58.8,30.03,South,180,10.0,12.0,67,0.00,,,0.00,WUHU21623XXSP,2013-01-28 02:46:00,
2013-01-27 20:50:00,70.2,58.6,30.03,SSE,168,8.0,13.0,67,0.00,,,0.00,WUHU21623XXSP,2013-01-28 02:50:00,
2013-01-27 20:51:00,70.2,58.6,30.03,SSE,157,9.0,13.0,67,0.00,,,0.00,WUHU21623XXSP,2013-01-28 02:51:00,
2013-01-27 20:52:00,70.3,58.8,30.03,SSE,150,6.0,13.0,67,0.00,,,0.00,WUHU21623XXSP,2013-01-28 02:52:00,
2013-01-27 20:55:00,70.2,58.6,30.03,SE,135,11.0,13.0,67,0.00,,,0.00,WUHU21623XXSP,2013-01-28 02:55:00,
2013-01-27 20:56:00,70.2,58.6,30.03,SSE,148,9.0,13.0,67,0.00,,,0.00,WUHU21623XXSP,2013-01-28 02:56:00,
2013-01-27 20:57:00,70.2,59.1,30.03,SSE,149,6.0,13.0,68,0.00,,,0.00,WUHU21623XXSP,2013-01-28 02:57:00,
2013-01-27 21:00:00,70.2,59.1,30.04,SSE,157,10.0,13.0,68,0.00,,,0.00,WUHU21623XXSP,2013-01-28 03:00:00,
2013-01-27 21:01:00,70.2,59.1,30.04,SSE,163,8.0,13.0,68,0.00,,,0.00,WUHU21623XXSP,2013-01-28 03:01:00,
2013-01-27 21:02:00,70.2,59.1,30.03,SSE,165,6.0,13.0,68,0.00,,,0.00,WUHU21623XXSP,2013-01-28 03:02:00,
2013-01-27 21:05:00,70.2,59.1,30.03,SSE,149,7.0,13.0,68,0.00,,,0.00,WUHU21623XXSP,2013-01-28 03:05:00,
2013-01-27 21:06:00,70.2,59.1,30.03,SE,145,7.0,13.0,68,0.00,,,0.00,WUHU21623XXSP,2013-01-28 03:06:00,
2013-01-27 21:07:00,70.2,59.1,30.03,SSE,157,8.0,13.0,68,0.00,,,0.00,WUHU21623XXSP,2013-01-28 03:07:00,
2013-01-27 21:10:00,70.2,59.1,30.03,SSE,157,9.0,11.0,68,0.00,,,0.00,WUHU21623XXSP,2013-01-28 03:10:00,
2013-01-27 21:11:00,70.2,59.1,30.03,SSE,157,11.0,11.0,68,0.00,,,0.00,WUHU21623XXSP,2013-01-28 03:11:00,
2013-01-27 21:12:00,70.2,59.1,30.03,SSE,158,8.0,11.0,68,0.00,,,0.00,WUHU21623XXSP,2013-01-28 03:12:00,
2013-01-27 21:15:00,70.2,59.1,30.03,SSE,157,8.0,12.0,68,0.00,,,0.00,WUHU21623XXSP,2013-01-28 03:15:00,
2013-01-27 21:16:00,70.0,58.9,30.03,South,180,8.0,12.0,68,0.00,,,0.00,WUHU21623XXSP,2013-01-28 03:16:00,
2013-01-27 21:17:00,70.0,58.9,30.03,SE,135,10.0,12.0,68,0.00,,,0.00,WUHU21623XXSP,2013-01-28 03:17:00,
2013-01-27 21:20:00,70.0,59.3,30.03,South,180,13.0,13.0,69,0.00,,,0.00,WUHU21623XXSP,2013-01-28 03:20:00,
2013-01-27 21:22:00,70.0,59.3,30.03,SSE,157,9.0,13.0,69,0.00,,,0.00,WUHU21623XXSP,2013-01-28 03:22:00,
2013-01-27 21:23:00,70.0,59.3,30.03,SSE,157,11.0,13.0,69,0.00,,,0.00,WUHU21623XXSP,2013-01-28 03:23:00,
2013-01-27 21:25:00,70.0,59.3,30.03,South,180,14.0,14.0,69,0.00,,,0.00,WUHU21623XXSP,2013-01-28 03:25:00,
2013-01-27 21:27:00,70.0,59.3,30.03,SSE,165,10.0,14.0,69,0.00,,,0.00,WUHU21623XXSP,2013-01-28 03:27:00,
2013-01-27 21:28:00,70.0,59.3,30.03,SSE,157,9.0,14.0,69,0.00,,,0.00,WUHU21623XXSP,2013-01-28 03:28:00,
2013-01-27 21:31:00,70.0,59.3,30.03,SSE,163,8.0,14.0,69,0.00,,,0.00,WUHU21623XXSP,2013-01-28 03:31:00,
2013-01-27 21:32:00,70.0,59.3,30.03,SSE,157,8.0,14.0,69,0.00,,,0.00,WUHU21623XXSP,2013-01-28 03:32:00,
2013-01-27 21:33:00,70.0,59.3,30.03,SSE,152,7.0,14.0,69,0.00,,,0.00,WUHU21623XXSP,2013-01-28 03:33:00,
2013-01-27 21:36:00,70.0,59.3,30.03,SSE,157,11.0,16.0,69,0.00,,,0.00,WUHU21623XXSP,2013-01-28 03:36:00,
2013-01-27 21:37:00,70.0,59.3,30.03,SSE,157,15.0,16.0,69,0.00,,,0.00,WUHU21623XXSP,2013-01-28 03:37:00,
2013-01-27 21:38:00,69.8,59.1,30.03,South,180,13.0,16.0,69,0.00,,,0.00,WUHU21623XXSP,2013-01-28 03:38:00,
2013-01-27 21:41:00,69.8,59.1,30.03,SSE,157,10.0,16.0,69,0.00,,,0.00,WUHU21623XXSP,2013-01-28 03:41:00,
2013-01-27 21:42:00,69.8,59.5,30.03,South,169,9.0,16.0,70,0.00,,,0.00,WUHU21623XXSP,2013-01-28 03:42:00,
2013-01-27 21:43:00,69.6,59.4,30.03,SSE,157,9.0,16.0,70,0.00,,,0.00,WUHU21623XXSP,2013-01-28 03:43:00,
2013-01-27 21:46:00,69.6,59.4,30.03,South,169,6.0,15.0,70,0.00,,,0.00,WUHU21623XXSP,2013-01-28 03:46:00,
2013-01-27 21:47:00,69.6,59.4,30.03,South,179,6.0,13.0,70,0.00,,,0.00,WUHU21623XXSP,2013-01-28 03:47:00,
2013-01-27 21:48:00,69.6,59.4,30.03,South,180,8.0,11.0,70,0.00,,,0.00,WUHU21623XXSP,2013-01-28 03:48:00,
2013-01-27 21:51:00,69.6,59.4,30.03,SSE,154,7.0,12.0,70,0.00,,,0.00,WUHU21623XXSP,2013-01-28 03:51:00,
2013-01-27 21:52:00,69.6,59.4,30.03,South,180,11.0,12.0,70,0.00,,,0.00,WUHU21623XXSP,2013-01-28 03:52:00,
2013-01-27 21:54:00,69.6,59.4,30.03,South,170,8.0,18.0,70,0.00,,,0.00,WUHU21623XXSP,2013-01-28 03:54:00,
2013-01-27 21:56:00,69.6,59.4,30.03,South,169,9.0,18.0,70,0.00,,,0.00,WUHU21623XXSP,2013-01-28 03:56:00,
2013-01-27 21:57:00,69.6,59.4,30.03,SSE,164,9.0,18.0,70,0.00,,,0.00,WUHU21623XXSP,2013-01-28 03:57:00,
2013-01-27 21:58:00,69.6,59.4,30.03,SSE,157,7.0,18.0,70,0.00,,,0.00,WUHU21623XXSP,2013-01-28 03:58:00,
2013-01-27 21:59:00,69.6,59.4,30.03,SSE,157,8.0,18.0,70,0.00,,,0.00,WUHU21623XXSP,2013-01-28 03:59:00,
2013-01-27 22:01:00,69.6,59.4,30.03,SSE,156,6.0,18.0,70,0.00,,,0.00,WUHU21623XXSP,2013-01-28 04:01:00,
2013-01-27 22:02:00,69.6,59.4,30.03,SSE,157,5.0,13.0,70,0.00,,,0.00,WUHU21623XXSP,2013-01-28 04:02:00,
2013-01-27 22:03:00,69.6,59.4,30.03,SSE,157,10.0,13.0,70,0.00,,,0.00,WUHU21623XXSP,2013-01-28 04:03:00,
2013-01-27 22:04:00,69.6,59.4,30.03,SSE,157,13.0,13.0,70,0.00,,,0.00,WUHU21623XXSP,2013-01-28 04:04:00,
2013-01-27 22:06:00,69.4,59.2,30.04,SSE,151,9.0,14.0,70,0.00,,,0.00,WUHU21623XXSP,2013-01-28 04:06:00,
2013-01-27 22:07:00,69.4,59.2,30.03,SSE,157,9.0,14.0,70,0.00,,,0.00,WUHU21623XXSP,2013-01-28 04:07:00,
2013-01-27 22:08:00,69.4,59.2,30.03,SSE,159,7.0,14.0,70,0.00,,,0.00,WUHU21623XXSP,2013-01-28 04:08:00,
2013-01-27 22:09:00,69.4,59.2,30.03,South,180,8.0,14.0,70,0.00,,,0.00,WUHU21623XXSP,2013-01-28 04:09:00,
2013-01-27 22:11:00,69.4,59.2,30.03,SSE,157,8.0,14.0,70,0.00,,,0.00,WUHU21623XXSP,2013-01-28 04:11:00,
2013-01-27 22:12:00,69.4,59.2,30.03,SSE,152,7.0,14.0,70,0.00,,,0.00,WUHU21623XXSP,2013-01-28 04:12:00,
2013-01-27 22:13:00,69.4,59.2,30.03,SSE,154,7.0,14.0,70,0.00,,,0.00,WUHU21623XXSP,2013-01-28 04:13:00,
2013-01-27 22:14:00,69.4,59.2,30.03,SSE,158,7.0,14.0,70,0.00,,,0.00,WUHU21623XXSP,2013-01-28 04:14:00,
2013-01-27 22:16:00,69.4,59.2,30.03,SE,135,7.0,11.0,70,0.00,,,0.00,WUHU21623XXSP,2013-01-28 04:16:00,
2013-01-27 22:17:00,69.3,59.1,30.03,SSE,157,9.0,11.0,70,0.00,,,0.00,WUHU21623XXSP,2013-01-28 04:17:00,
2013-01-27 22:18:00,69.3,59.1,30.03,SSE,158,7.0,11.0,70,0.00,,,0.00,WUHU21623XXSP,2013-01-28 04:18:00,
2013-01-27 22:19:00,69.3,59.3,30.03,SSE,160,9.0,16.0,70,0.00,,,0.00,WUHU21623XXSP,2013-01-28 04:19:00,
2013-01-27 22:22:00,69.3,59.4,30.03,SSE,157,10.0,16.0,71,0.00,,,0.00,WUHU21623XXSP,2013-01-28 04:22:00,
2013-01-27 22:23:00,69.3,59.4,30.04,SSE,159,8.0,16.0,71,0.00,,,0.00,WUHU21623XXSP,2013-01-28 04:23:00,
2013-01-27 22:25:00,69.1,59.3,30.04,South,180,12.0,16.0,71,0.00,,,0.00,WUHU21623XXSP,2013-01-28 04:25:00,
2013-01-27 22:27:00,69.1,59.3,30.04,South,169,9.0,16.0,71,0.00,,,0.00,WUHU21623XXSP,2013-01-28 04:27:00,
2013-01-27 22:28:00,69.1,59.3,30.04,SSE,165,8.0,16.0,71,0.00,,,0.00,WUHU21623XXSP,2013-01-28 04:28:00,
2013-01-27 22:29:00,69.1,59.3,30.04,South,180,18.0,18.0,71,0.00,,,0.00,WUHU21623XXSP,2013-01-28 04:29:00,
2013-01-27 22:30:00,69.1,59.3,30.04,SE,135,11.0,18.0,71,0.00,,,0.00,WUHU21623XXSP,2013-01-28 04:30:00,
2013-01-27 22:32:00,69.1,59.3,30.04,SSE,157,10.0,18.0,71,0.00,,,0.00,WUHU21623XXSP,2013-01-28 04:32:00,
2013-01-27 22:33:00,69.1,59.3,30.04,SSE,161,8.0,18.0,71,0.00,,,0.00,WUHU21623XXSP,2013-01-28 04:33:00,
2013-01-27 22:34:00,69.1,59.3,30.04,SSE,147,6.0,18.0,71,0.00,,,0.00,WUHU21623XXSP,2013-01-28 04:34:00,
2013-01-27 22:35:00,69.1,59.6,30.04,SE,135,7.0,18.0,72,0.00,,,0.00,WUHU21623XXSP,2013-01-28 04:35:00,
2013-01-27 22:37:00,69.1,59.6,30.04,SSE,157,12.0,18.0,72,0.00,,,0.00,WUHU21623XXSP,2013-01-28 04:37:00,
2013-01-27 22:38:00,69.1,59.6,30.05,South,171,9.0,18.0,72,0.00,,,0.00,WUHU21623XXSP,2013-01-28 04:38:00,
2013-01-27 22:39:00,69.1,59.6,30.04,SSE,165,9.0,18.0,72,0.00,,,0.00,WUHU21623XXSP,2013-01-28 04:39:00,
2013-01-27 22:40:00,69.1,59.6,30.04,South,178,7.0,18.0,72,0.00,,,0.00,WUHU21623XXSP,2013-01-28 04:40:00,
2013-01-27 22:42:00,69.1,59.6,30.05,SSE,157,11.0,18.0,72,0.00,,,0.00,WUHU21623XXSP,2013-01-28 04:42:00,
2013-01-27 22:43:00,69.1,59.6,30.04,South,169,9.0,18.0,72,0.00,,,0.00,WUHU21623XXSP,2013-01-28 04:43:00,
2013-01-27 22:44:00,69.1,59.6,30.05,South,179,7.0,18.0,72,0.00,,,0.00,WUHU21623XXSP,2013-01-28 04:44:00,
2013-01-27 22:45:00,69.1,59.6,30.05,SSE,157,9.0,15.0,72,0.00,,,0.00,WUHU21623XXSP,2013-01-28 04:45:00,
2013-01-27 22:47:00,69.1,59.6,30.05,SSE,168,7.0,14.0,72,0.00,,,0.00,WUHU21623XXSP,2013-01-28 04:47:00,
2013-01-27 22:48:00,69.1,60.0,30.05,SSW,197,6.0,14.0,73,0.00,,,0.00,WUHU21623XXSP,2013-01-28 04:48:00,
2013-01-27 22:49:00,69.1,60.0,30.05,SSW,202,11.0,14.0,73,0.00,,,0.00,WUHU21623XXSP,2013-01-28 04:49:00,
2013-01-27 22:51:00,69.1,60.0,30.05,South,191,7.0,14.0,73,0.00,,,0.00,WUHU21623XXSP,2013-01-28 04:51:00,
2013-01-27 22:52:00,69.1,60.0,30.05,South,170,6.0,14.0,73,0.00,,,0.00,WUHU21623XXSP,2013-01-28 04:52:00,
2013-01-27 22:53:00,69.1,60.0,30.05,SSE,155,6.0,13.0,73,0.00,,,0.00,WUHU21623XXSP,2013-01-28 04:53:00,
2013-01-27 22:54:00,69.1,60.0,30.05,SSE,157,9.0,13.0,73,0.00,,,0.00,WUHU21623XXSP,2013-01-28 04:54:00,
2013-01-27 22:56:00,69.1,60.0,30.05,SE,135,9.0,11.0,73,0.00,,,0.00,WUHU21623XXSP,2013-01-28 04:56:00,
2013-01-27 22:57:00,69.1,60.0,30.05,SSE,157,10.0,11.0,73,0.00,,,0.00,WUHU21623XXSP,2013-01-28 04:57:00,
2013-01-27 22:58:00,69.1,60.0,30.05,SSE,162,7.0,11.0,73,0.00,,,0.00,WUHU21623XXSP,2013-01-28 04:58:00,
2013-01-27 22:59:00,69.1,60.0,30.05,SSE,157,6.0,10.0,73,0.00,,,0.00,WUHU21623XXSP,2013-01-28 04:59:00,
2013-01-27 23:00:00,69.1,60.0,30.05,SSE,159,6.0,10.0,73,0.00,,,0.00,WUHU21623XXSP,2013-01-28 05:00:00,
2013-01-27 23:03:00,69.1,60.0,30.05,SSE,157,9.0,13.0,73,0.00,,,0.00,WUHU21623XXSP,2013-01-28 05:03:00,
2013-01-27 23:04:00,69.1,60.0,30.05,SE,135,11.0,13.0,73,0.00,,,0.00,WUHU21623XXSP,2013-01-28 05:04:00,
2013-01-27 23:05:00,69.1,60.0,30.05,SSE,156,8.0,13.0,73,0.00,,,0.00,WUHU21623XXSP,2013-01-28 05:05:00,
2013-01-27 23:08:00,69.1,60.0,30.05,SSE,168,9.0,13.0,73,0.00,,,0.00,WUHU21623XXSP,2013-01-28 05:08:00,
2013-01-27 23:09:00,69.1,60.0,30.05,SE,135,9.0,13.0,73,0.00,,,0.00,WUHU21623XXSP,2013-01-28 05:09:00,
2013-01-27 23:10:00,69.1,60.0,30.05,SSE,156,9.0,13.0,73,0.00,,,0.00,WUHU21623XXSP,2013-01-28 05:10:00,
2013-01-27 23:13:00,69.1,60.0,30.06,SSE,159,9.0,14.0,73,0.00,,,0.00,WUHU21623XXSP,2013-01-28 05:13:00,
2013-01-27 23:14:00,69.1,60.0,30.06,SSW,202,16.0,16.0,73,0.00,,,0.00,WUHU21623XXSP,2013-01-28 05:14:00,
2013-01-27 23:15:00,69.1,60.0,30.06,South,180,13.0,18.0,73,0.00,,,0.00,WUHU21623XXSP,2013-01-28 05:15:00,
2013-01-27 23:18:00,69.3,60.2,30.06,SSE,153,5.0,18.0,73,0.00,,,0.00,WUHU21623XXSP,2013-01-28 05:18:00,
2013-01-27 23:19:00,69.1,60.0,30.06,SSE,157,12.0,18.0,73,0.00,,,0.00,WUHU21623XXSP,2013-01-28 05:19:00,
2013-01-27 23:20:00,69.1,60.4,30.06,SSE,157,9.0,18.0,74,0.00,,,0.00,WUHU21623XXSP,2013-01-28 05:20:00,
2013-01-27 23:23:00,69.1,60.4,30.06,SE,135,8.0,18.0,74,0.00,,,0.00,WUHU21623XXSP,2013-01-28 05:23:00,
2013-01-27 23:24:00,69.1,60.4,30.06,SSE,152,7.0,18.0,74,0.00,,,0.00,WUHU21623XXSP,2013-01-28 05:24:00,
2013-01-27 23:25:00,69.1,60.4,30.06,ESE,112,11.0,13.0,74,0.00,,,0.00,WUHU21623XXSP,2013-01-28 05:25:00,
2013-01-27 23:28:00,69.1,60.4,30.06,SSE,160,9.0,19.0,74,0.00,,,0.00,WUHU21623XXSP,2013-01-28 05:28:00,
2013-01-27 23:29:00,69.1,60.4,30.06,SSE,165,7.0,19.0,74,0.00,,,0.00,WUHU21623XXSP,2013-01-28 05:29:00,
2013-01-27 23:30:00,69.1,60.4,30.06,South,175,6.0,19.0,74,0.00,,,0.00,WUHU21623XXSP,2013-01-28 05:30:00,
2013-01-27 23:33:00,69.1,60.4,30.06,South,180,11.0,19.0,74,0.00,,,0.00,WUHU21623XXSP,2013-01-28 05:33:00,
2013-01-27 23:34:00,69.1,60.4,30.06,SSE,157,22.0,22.0,74,0.00,,,0.00,WUHU21623XXSP,2013-01-28 05:34:00,
2013-01-27 23:36:00,69.1,60.4,30.06,SSE,165,10.0,22.0,74,0.00,,,0.00,WUHU21623XXSP,2013-01-28 05:36:00,
2013-01-27 23:39:00,69.1,60.4,30.06,SSE,166,7.0,22.0,74,0.00,,,0.00,WUHU21623XXSP,2013-01-28 05:39:00,
2013-01-27 23:41:00,69.1,60.4,30.07,SSE,157,6.0,22.0,74,0.00,,,0.00,WUHU21623XXSP,2013-01-28 05:41:00,
2013-01-27 23:44:00,69.1,60.4,30.07,South,179,7.0,22.0,74,0.00,,,0.00,WUHU21623XXSP,2013-01-28 05:44:00,
2013-01-27 23:46:00,69.1,60.4,30.07,SSE,157,10.0,18.0,74,0.00,,,0.00,WUHU21623XXSP,2013-01-28 05:46:00,
2013-01-27 23:48:00,69.1,60.4,30.07,SSE,157,10.0,18.0,74,0.00,,,0.00,WUHU21623XXSP,2013-01-28 05:48:00,
2013-01-27 23:49:00,69.3,60.6,30.07,South,178,8.0,18.0,74,0.00,,,0.00,WUHU21623XXSP,2013-01-28 05:49:00,
2013-01-27 23:51:00,69.3,60.6,30.07,South,170,8.0,18.0,74,0.00,,,0.00,WUHU21623XXSP,2013-01-28 05:51:00,
2013-01-27 23:54:00,69.1,60.4,30.07,South,176,8.0,18.0,74,0.00,,,0.00,WUHU21623XXSP,2013-01-28 05:54:00,
2013-01-27 23:56:00,69.3,60.6,30.07,South,180,13.0,13.0,74,0.00,,,0.00,WUHU21623XXSP,2013-01-28 05:56:00,
2013-01-27 23:59:00,69.3,60.6,30.07,South,187,7.0,13.0,74,0.00,,,0.00,WUHU21623XXSP,2013-01-28 05:59:00,